Home > Products > Valid Products > TAF

000
FTUS42 KRAH 052145 AAH
TAFFAY
TAF AMD
KFAY 052145Z 0522/0618 04013G21KT 1 1/2SM -RA BR BKN010 OVC025
      TEMPO 0522/0524 5SM -DZ BR SCT010 OVC040
     FM060000 04010KT 3SM -RA BR OVC004
     FM060600 02015KT 3SM BR OVC010
     FM061200 02013KT P6SM SCT015=



000
FTUS42 KRAH 052145 AAH
TAFFAY
TAF AMD
KFAY 052145Z 0522/0618 04013G21KT 1 1/2SM -RA BR BKN010 OVC025
      TEMPO 0522/0524 5SM -DZ BR SCT010 OVC040
     FM060000 04010KT 3SM -RA BR OVC004
     FM060600 02015KT 3SM BR OVC010
     FM061200 02013KT P6SM SCT015=



000
FTUS42 KRAH 052144 AAD
TAFRWI
TAF AMD
KRWI 052144Z 0522/0618 02011G17KT 1 1/2SM -RA BR BKN010 OVC035
      TEMPO 0522/0524 5SM -DZ BR OVC006
     FM060000 36010G20KT 2SM -RAPL BR OVC004
     FM060600 02015KT 3SM BR OVC010
     FM061200 02013KT P6SM SCT015=



000
FTUS42 KRAH 052144 AAD
TAFRWI
TAF AMD
KRWI 052144Z 0522/0618 02011G17KT 1 1/2SM -RA BR BKN010 OVC035
      TEMPO 0522/0524 5SM -DZ BR OVC006
     FM060000 36010G20KT 2SM -RAPL BR OVC004
     FM060600 02015KT 3SM BR OVC010
     FM061200 02013KT P6SM SCT015=



000
FTUS42 KRAH 052144 AAD
TAFRWI
TAF AMD
KRWI 052144Z 0522/0618 02011G17KT 1 1/2SM -RA BR BKN010 OVC035
      TEMPO 0522/0524 5SM -DZ BR OVC006
     FM060000 36010G20KT 2SM -RAPL BR OVC004
     FM060600 02015KT 3SM BR OVC010
     FM061200 02013KT P6SM SCT015=



000
FTUS42 KRAH 052142 AAC
TAFRWI
TAF AMD
KRWI 052142Z 0522/0618 02011G17KT 1 1/2SM -RA BR BKN010 OVC035
     FM060000 36010G20KT 2SM -RAPL BR OVC004
     FM060600 02015KT 3SM BR OVC010
     FM061200 02013KT P6SM SCT015=



000
FTUS42 KRAH 052142 AAC
TAFRWI
TAF AMD
KRWI 052142Z 0522/0618 02011G17KT 1 1/2SM -RA BR BKN010 OVC035
     FM060000 36010G20KT 2SM -RAPL BR OVC004
     FM060600 02015KT 3SM BR OVC010
     FM061200 02013KT P6SM SCT015=



000
FTUS42 KRAH 052142 AAG
TAFFAY
TAF AMD
KFAY 052142Z 0522/0618 04016G25KT 1 1/2SM -RA BR BKN009 OVC025
      TEMPO 0522/0524 5SM -DZ BR SCT010 OVC040
     FM060000 04010KT 3SM -RA BR OVC004
     FM060600 02015KT 3SM BR OVC010
     FM061200 02013KT P6SM SCT015=



000
FTUS42 KRAH 052142 AAG
TAFFAY
TAF AMD
KFAY 052142Z 0522/0618 04016G25KT 1 1/2SM -RA BR BKN009 OVC025
      TEMPO 0522/0524 5SM -DZ BR SCT010 OVC040
     FM060000 04010KT 3SM -RA BR OVC004
     FM060600 02015KT 3SM BR OVC010
     FM061200 02013KT P6SM SCT015=



000
FTUS42 KRAH 052142 AAC
TAFRWI
TAF AMD
KRWI 052142Z 0522/0618 02011G17KT 1 1/2SM -RA BR BKN010 OVC035
     FM060000 36010G20KT 2SM -RAPL BR OVC004
     FM060600 02015KT 3SM BR OVC010
     FM061200 02013KT P6SM SCT015=



000
FTUS42 KRAH 052142 AAG
TAFFAY
TAF AMD
KFAY 052142Z 0522/0618 04016G25KT 1 1/2SM -RA BR BKN009 OVC025
      TEMPO 0522/0524 5SM -DZ BR SCT010 OVC040
     FM060000 04010KT 3SM -RA BR OVC004
     FM060600 02015KT 3SM BR OVC010
     FM061200 02013KT P6SM SCT015=



000
FTUS42 KRAH 052142 AAG
TAFFAY
TAF AMD
KFAY 052142Z 0522/0618 04016G25KT 1 1/2SM -RA BR BKN009 OVC025
      TEMPO 0522/0524 5SM -DZ BR SCT010 OVC040
     FM060000 04010KT 3SM -RA BR OVC004
     FM060600 02015KT 3SM BR OVC010
     FM061200 02013KT P6SM SCT015=



000
FTUS42 KRAH 052142 AAC
TAFRWI
TAF AMD
KRWI 052142Z 0522/0618 02011G17KT 1 1/2SM -RA BR BKN010 OVC035
     FM060000 36010G20KT 2SM -RAPL BR OVC004
     FM060600 02015KT 3SM BR OVC010
     FM061200 02013KT P6SM SCT015=



000
FTUS42 KRAH 052138 AAB
TAFRDU
TAF AMD
KRDU 052138Z 0522/0618 05010G16KT 5SM -RADZ BR BKN008 OVC015
     FM052300 03010KT 3SM -RAPL BR OVC005
     FM060300 03008KT 3SM -RASNPL BR OVC005
     FM060600 03008KT 5SM BR OVC005
     FM061200 03008KT P6SM FEW020=



000
FTUS42 KRAH 052138 AAB
TAFRDU
TAF AMD
KRDU 052138Z 0522/0618 05010G16KT 5SM -RADZ BR BKN008 OVC015
     FM052300 03010KT 3SM -RAPL BR OVC005
     FM060300 03008KT 3SM -RASNPL BR OVC005
     FM060600 03008KT 5SM BR OVC005
     FM061200 03008KT P6SM FEW020=



000
FTUS42 KRAH 052138 AAB
TAFRDU
TAF AMD
KRDU 052138Z 0522/0618 05010G16KT 5SM -RADZ BR BKN008 OVC015
     FM052300 03010KT 3SM -RAPL BR OVC005
     FM060300 03008KT 3SM -RASNPL BR OVC005
     FM060600 03008KT 5SM BR OVC005
     FM061200 03008KT P6SM FEW020=



000
FTUS42 KRAH 052138 AAB
TAFRDU
TAF AMD
KRDU 052138Z 0522/0618 05010G16KT 5SM -RADZ BR BKN008 OVC015
     FM052300 03010KT 3SM -RAPL BR OVC005
     FM060300 03008KT 3SM -RASNPL BR OVC005
     FM060600 03008KT 5SM BR OVC005
     FM061200 03008KT P6SM FEW020=



000
FTUS42 KRAH 052136 AAA
TAFRDU
TAF AMD
KRDU 052136Z 0522/0618 05010G16KT 1 1/2SM -RA BR BKN008 OVC015
     FM052300 03010KT 3SM -RAPL BR OVC005
     FM060300 03008KT 3SM -RASNPL BR OVC005
     FM060600 03008KT 5SM BR OVC005
     FM061200 03008KT P6SM FEW020=



000
FTUS42 KRAH 052136 AAA
TAFRDU
TAF AMD
KRDU 052136Z 0522/0618 05010G16KT 1 1/2SM -RA BR BKN008 OVC015
     FM052300 03010KT 3SM -RAPL BR OVC005
     FM060300 03008KT 3SM -RASNPL BR OVC005
     FM060600 03008KT 5SM BR OVC005
     FM061200 03008KT P6SM FEW020=



000
FTUS42 KRAH 052136 AAA
TAFRDU
TAF AMD
KRDU 052136Z 0522/0618 05010G16KT 1 1/2SM -RA BR BKN008 OVC015
     FM052300 03010KT 3SM -RAPL BR OVC005
     FM060300 03008KT 3SM -RASNPL BR OVC005
     FM060600 03008KT 5SM BR OVC005
     FM061200 03008KT P6SM FEW020=



000
FTUS42 KRAH 052136 AAA
TAFRDU
TAF AMD
KRDU 052136Z 0522/0618 05010G16KT 1 1/2SM -RA BR BKN008 OVC015
     FM052300 03010KT 3SM -RAPL BR OVC005
     FM060300 03008KT 3SM -RASNPL BR OVC005
     FM060600 03008KT 5SM BR OVC005
     FM061200 03008KT P6SM FEW020=



000
FTUS42 KRAH 052133 AAB
TAFGSO
TAF AMD
KGSO 052133Z 0522/0618 05011G17KT 6SM -RA OVC008
      TEMPO 0522/0524 3SM -RAPL BR BKN004 OVC006
     FM060000 02011KT 3SM -RAPL BR OVC004
     FM060100 02010KT 2SM -SNPL BR OVC005
     FM060300 35010KT 5SM BR OVC025
     FM061000 04008KT P6SM FEW030=



000
FTUS42 KRAH 052133 AAB
TAFGSO
TAF AMD
KGSO 052133Z 0522/0618 05011G17KT 6SM -RA OVC008
      TEMPO 0522/0524 3SM -RAPL BR BKN004 OVC006
     FM060000 02011KT 3SM -RAPL BR OVC004
     FM060100 02010KT 2SM -SNPL BR OVC005
     FM060300 35010KT 5SM BR OVC025
     FM061000 04008KT P6SM FEW030=



000
FTUS42 KRAH 052133 AAB
TAFINT
TAF AMD
KINT 052133Z 0522/0618 05011G17KT 6SM -RA OVC008
      TEMPO 0522/0524 3SM -RAPL BR BKN004 OVC006
     FM060000 02011KT 3SM -RAPL BR OVC004
     FM060100 02010KT 2SM -SNPL BR OVC005
     FM060300 35010KT 5SM BR OVC025
     FM061000 04008KT P6SM FEW030=



000
FTUS42 KRAH 052133 AAB
TAFINT
TAF AMD
KINT 052133Z 0522/0618 05011G17KT 6SM -RA OVC008
      TEMPO 0522/0524 3SM -RAPL BR BKN004 OVC006
     FM060000 02011KT 3SM -RAPL BR OVC004
     FM060100 02010KT 2SM -SNPL BR OVC005
     FM060300 35010KT 5SM BR OVC025
     FM061000 04008KT P6SM FEW030=



000
FTUS42 KRAH 052121 AAF
TAFFAY
TAF AMD
KFAY 052121Z 0521/0618 04016G25KT 1 1/2SM -RA BR BKN009 OVC025
      WS012/23035KT
     FM052300 04010KT 3SM -RA BR OVC004
     FM060600 02015KT 3SM BR OVC010
     FM061200 02013KT P6SM SCT015=



000
FTUS42 KRAH 052121 AAF
TAFFAY
TAF AMD
KFAY 052121Z 0521/0618 04016G25KT 1 1/2SM -RA BR BKN009 OVC025
      WS012/23035KT
     FM052300 04010KT 3SM -RA BR OVC004
     FM060600 02015KT 3SM BR OVC010
     FM061200 02013KT P6SM SCT015=



000
FTUS42 KRAH 052030 AAB
TAFRWI
TAF AMD
KRWI 052030Z 0521/0618 01016G27KT 1 1/2SM -RA BR BKN009 OVC015
     FM060000 36010G20KT 2SM -RAPL BR OVC004
     FM060600 02015KT 3SM BR OVC010
     FM061200 02013KT P6SM SCT015=



000
FTUS42 KRAH 052030 AAB
TAFRWI
TAF AMD
KRWI 052030Z 0521/0618 01016G27KT 1 1/2SM -RA BR BKN009 OVC015
     FM060000 36010G20KT 2SM -RAPL BR OVC004
     FM060600 02015KT 3SM BR OVC010
     FM061200 02013KT P6SM SCT015=



000
FTUS42 KRAH 052030 AAB
TAFRWI
TAF AMD
KRWI 052030Z 0521/0618 01016G27KT 1 1/2SM -RA BR BKN009 OVC015
     FM060000 36010G20KT 2SM -RAPL BR OVC004
     FM060600 02015KT 3SM BR OVC010
     FM061200 02013KT P6SM SCT015=



000
FTUS42 KRAH 052020 AAA
TAFGSO
TAF AMD
KGSO 052020Z 0520/0618 06012KT 6SM -RA BR BKN008 OVC060
      TEMPO 0520/0522 3SM -RA BR
     FM052200 02011KT 1SM -RAPL BR OVC002
     FM060100 02010KT 2SM -SNPL BR OVC005
     FM060300 35010KT 5SM BR OVC025
     FM061000 04008KT P6SM FEW030=



000
FTUS42 KRAH 052020 AAA
TAFGSO
TAF AMD
KGSO 052020Z 0520/0618 06012KT 6SM -RA BR BKN008 OVC060
      TEMPO 0520/0522 3SM -RA BR
     FM052200 02011KT 1SM -RAPL BR OVC002
     FM060100 02010KT 2SM -SNPL BR OVC005
     FM060300 35010KT 5SM BR OVC025
     FM061000 04008KT P6SM FEW030=



000
FTUS42 KRAH 052020 AAA
TAFGSO
TAF AMD
KGSO 052020Z 0520/0618 06012KT 6SM -RA BR BKN008 OVC060
      TEMPO 0520/0522 3SM -RA BR
     FM052200 02011KT 1SM -RAPL BR OVC002
     FM060100 02010KT 2SM -SNPL BR OVC005
     FM060300 35010KT 5SM BR OVC025
     FM061000 04008KT P6SM FEW030=



000
FTUS42 KRAH 052020 AAA
TAFGSO
TAF AMD
KGSO 052020Z 0520/0618 06012KT 6SM -RA BR BKN008 OVC060
      TEMPO 0520/0522 3SM -RA BR
     FM052200 02011KT 1SM -RAPL BR OVC002
     FM060100 02010KT 2SM -SNPL BR OVC005
     FM060300 35010KT 5SM BR OVC025
     FM061000 04008KT P6SM FEW030=



000
FTUS42 KRAH 052019 AAA
TAFINT
TAF AMD
KINT 052019Z 0520/0618 06009KT 6SM -RA BKN008 BKN013 OVC070
      TEMPO 0520/0522 3SM RA BR BKN004
     FM052200 02011KT 1SM -RAPL BR OVC004
     FM060100 02010KT 2SM -SNPL BR OVC005
     FM060300 35010KT 5SM BR OVC025
     FM061000 04008KT P6SM FEW030=



000
FTUS42 KRAH 052019 AAA
TAFINT
TAF AMD
KINT 052019Z 0520/0618 06009KT 6SM -RA BKN008 BKN013 OVC070
      TEMPO 0520/0522 3SM RA BR BKN004
     FM052200 02011KT 1SM -RAPL BR OVC004
     FM060100 02010KT 2SM -SNPL BR OVC005
     FM060300 35010KT 5SM BR OVC025
     FM061000 04008KT P6SM FEW030=



000
FTUS42 KRAH 052019 AAA
TAFINT
TAF AMD
KINT 052019Z 0520/0618 06009KT 6SM -RA BKN008 BKN013 OVC070
      TEMPO 0520/0522 3SM RA BR BKN004
     FM052200 02011KT 1SM -RAPL BR OVC004
     FM060100 02010KT 2SM -SNPL BR OVC005
     FM060300 35010KT 5SM BR OVC025
     FM061000 04008KT P6SM FEW030=



000
FTUS42 KRAH 052007 AAE
TAFFAY
TAF AMD
KFAY 052007Z 0520/0618 01020G35KT 2SM -RA BR BKN009 OVC025
      WS012/23035KT
     FM052300 04010KT 3SM -RA BR OVC004
     FM060600 02015KT 3SM BR OVC010
     FM061200 02013KT P6SM SCT015=



000
FTUS42 KRAH 052007 AAE
TAFFAY
TAF AMD
KFAY 052007Z 0520/0618 01020G35KT 2SM -RA BR BKN009 OVC025
      WS012/23035KT
     FM052300 04010KT 3SM -RA BR OVC004
     FM060600 02015KT 3SM BR OVC010
     FM061200 02013KT P6SM SCT015=



000
FTUS42 KRAH 051943 AAA
TAFRWI
TAF AMD
KRWI 051943Z 0520/0618 01015G25KT 1 1/2SM -RA BR OVC006
     FM060000 36010G20KT 2SM -RAPL BR OVC003
     FM060600 02015KT 3SM BR OVC010
     FM061200 02013KT P6SM SCT015=



000
FTUS42 KRAH 051943 AAA
TAFRWI
TAF AMD
KRWI 051943Z 0520/0618 01015G25KT 1 1/2SM -RA BR OVC006
     FM060000 36010G20KT 2SM -RAPL BR OVC003
     FM060600 02015KT 3SM BR OVC010
     FM061200 02013KT P6SM SCT015=



000
FTUS42 KRAH 051935 AAD
TAFFAY
TAF AMD
KFAY 051935Z 0520/0618 03025G35KT 5SM -RA BR BKN010 OVC025
      WS012/23035KT
     FM052300 04010KT 3SM -RA BR OVC004
     FM060600 02015KT 3SM BR OVC010
     FM061200 02013KT P6SM SCT015=



000
FTUS42 KRAH 051935 AAD
TAFFAY
TAF AMD
KFAY 051935Z 0520/0618 03025G35KT 5SM -RA BR BKN010 OVC025
      WS012/23035KT
     FM052300 04010KT 3SM -RA BR OVC004
     FM060600 02015KT 3SM BR OVC010
     FM061200 02013KT P6SM SCT015=



000
FTUS42 KRAH 051930 AAC
TAFFAY
TAF AMD
KFAY 051930Z 0520/0618 03012G20KT 5SM -RA BR BKN010 OVC025
      WS012/23035KT
     FM052300 04010KT 3SM -RA BR OVC004
     FM060600 02015KT 3SM BR OVC010
     FM061200 02013KT P6SM SCT015=



000
FTUS42 KRAH 051930 AAC
TAFFAY
TAF AMD
KFAY 051930Z 0520/0618 03012G20KT 5SM -RA BR BKN010 OVC025
      WS012/23035KT
     FM052300 04010KT 3SM -RA BR OVC004
     FM060600 02015KT 3SM BR OVC010
     FM061200 02013KT P6SM SCT015=



000
FTUS42 KRAH 051915 AAB
TAFFAY
TAF AMD
KFAY 051915Z 0519/0618 35025G35KT P6SM SCT015 BKN040 WS012/23035KT
     FM051930 03012G20KT 5SM -RA BR BKN020 OVC030 WS012/23035KT
     FM052300 04010KT 3SM -RA BR OVC004
     FM060600 02015KT 3SM BR OVC010
     FM061200 02013KT P6SM SCT015=



000
FTUS42 KRAH 051915 AAB
TAFFAY
TAF AMD
KFAY 051915Z 0519/0618 35025G35KT P6SM SCT015 BKN040 WS012/23035KT
     FM051930 03012G20KT 5SM -RA BR BKN020 OVC030 WS012/23035KT
     FM052300 04010KT 3SM -RA BR OVC004
     FM060600 02015KT 3SM BR OVC010
     FM061200 02013KT P6SM SCT015=



000
FTUS42 KRAH 051911 AAA
TAFFAY
TAF AMD
KFAY 051911Z 0519/0618 35018G30KT P6SM SCT015 BKN040 WS012/23035KT
     FM051930 03012G20KT 5SM -RA BR BKN020 OVC030 WS012/23035KT
     FM052300 04010KT 3SM -RA BR OVC004
     FM060600 02015KT 3SM BR OVC010
     FM061200 02013KT P6SM SCT015=



000
FTUS42 KRAH 051911 AAA
TAFFAY
TAF AMD
KFAY 051911Z 0519/0618 35018G30KT P6SM SCT015 BKN040 WS012/23035KT
     FM051930 03012G20KT 5SM -RA BR BKN020 OVC030 WS012/23035KT
     FM052300 04010KT 3SM -RA BR OVC004
     FM060600 02015KT 3SM BR OVC010
     FM061200 02013KT P6SM SCT015=



000
FTUS42 KRAH 051731 CCA
TAFGSO
TAF COR
KGSO 051731Z 0518/0618 03012G22KT 2SM -RA BR OVC006
      TEMPO 0518/0521 1 1/2SM -RA BR
     FM052100 02011KT 1SM -RAPL BR OVC002
     FM060100 02010KT 2SM -SNPL BR OVC005
     FM060300 35010KT 5SM BR OVC025
     FM061000 04008KT P6SM FEW030=



000
FTUS42 KRAH 051731 CCA
TAFGSO
TAF COR
KGSO 051731Z 0518/0618 03012G22KT 2SM -RA BR OVC006
      TEMPO 0518/0521 1 1/2SM -RA BR
     FM052100 02011KT 1SM -RAPL BR OVC002
     FM060100 02010KT 2SM -SNPL BR OVC005
     FM060300 35010KT 5SM BR OVC025
     FM061000 04008KT P6SM FEW030=



000
FTUS42 KRAH 051730
TAFRWI
TAF
KRWI 051730Z 0518/0618 03012G20KT 4SM -RA OVC006
      TEMPO 0518/0520 1 1/2SM -RA BR OVC004
     FM052000 01012G22KT 1 1/2SM -RA BR OVC005
     FM060000 36010G20KT 2SM -RAPL BR OVC003
     FM060600 02015KT 3SM BR OVC010
     FM061200 02013KT P6SM SCT015=



000
FTUS42 KRAH 051730
TAFRDU
TAF
KRDU 051730Z 0518/0618 03010G18KT 1 1/2SM -RA BR OVC005
     FM052300 03010KT 1SM -RAPL BR OVC003
     FM060300 03008KT 3SM -RASNPL BR OVC005
     FM060600 03008KT 5SM BR OVC005
     FM061200 03008KT P6SM FEW020=



000
FTUS42 KRAH 051730
TAFFAY
TAF
KFAY 051730Z 0518/0618 22010G20KT P6SM SCT015 BKN060 WS012/23035KT
      TEMPO 0518/0520 BKN015
     FM052000 03012G20KT 3SM -RA BKN012 OVC030
     FM052300 04010KT 1 1/2SM -RA BR OVC004
     FM060600 02015KT 3SM BR OVC010
     FM061200 02013KT P6SM SCT015=



000
FTUS42 KRAH 051730
TAFGSO
TAF
KGSO 051730Z 0518/0618 03012G22KT 2SM -RA BR OVC006
     FM052100 02011KT 1SM -RAPL BR OVC002
     FM060100 02010KT 2SM -SNPL BR OVC005
     FM060300 35010KT 5SM BR OVC025
     FM061000 04008KT P6SM FEW030=



000
FTUS42 KRAH 051730
TAFINT
TAF
KINT 051730Z 0518/0618 03012G20KT 2SM RA BR BKN008 OVC025
      TEMPO 0518/0521 1 1/2SM RA BR BKN004
     FM052100 02011KT 1SM -RAPL BR OVC004
     FM060100 02010KT 2SM -SNPL BR OVC005
     FM060300 35010KT 5SM BR OVC025
     FM061000 04008KT P6SM FEW030=



000
FTUS42 KRAH 051730
TAFRWI
TAF
KRWI 051730Z 0518/0618 03012G20KT 4SM -RA OVC006
      TEMPO 0518/0520 1 1/2SM -RA BR OVC004
     FM052000 01012G22KT 1 1/2SM -RA BR OVC005
     FM060000 36010G20KT 2SM -RAPL BR OVC003
     FM060600 02015KT 3SM BR OVC010
     FM061200 02013KT P6SM SCT015=



000
FTUS42 KRAH 051730
TAFGSO
TAF
KGSO 051730Z 0518/0618 03012G22KT 2SM -RA BR OVC006
     FM052100 02011KT 1SM -RAPL BR OVC002
     FM060100 02010KT 2SM -SNPL BR OVC005
     FM060300 35010KT 5SM BR OVC025
     FM061000 04008KT P6SM FEW030=



000
FTUS42 KRAH 051730
TAFFAY
TAF
KFAY 051730Z 0518/0618 22010G20KT P6SM SCT015 BKN060 WS012/23035KT
      TEMPO 0518/0520 BKN015
     FM052000 03012G20KT 3SM -RA BKN012 OVC030
     FM052300 04010KT 1 1/2SM -RA BR OVC004
     FM060600 02015KT 3SM BR OVC010
     FM061200 02013KT P6SM SCT015=



000
FTUS42 KRAH 051730
TAFRDU
TAF
KRDU 051730Z 0518/0618 03010G18KT 1 1/2SM -RA BR OVC005
     FM052300 03010KT 1SM -RAPL BR OVC003
     FM060300 03008KT 3SM -RASNPL BR OVC005
     FM060600 03008KT 5SM BR OVC005
     FM061200 03008KT P6SM FEW020=



000
FTUS42 KRAH 051730
TAFINT
TAF
KINT 051730Z 0518/0618 03012G20KT 2SM RA BR BKN008 OVC025
      TEMPO 0518/0521 1 1/2SM RA BR BKN004
     FM052100 02011KT 1SM -RAPL BR OVC004
     FM060100 02010KT 2SM -SNPL BR OVC005
     FM060300 35010KT 5SM BR OVC025
     FM061000 04008KT P6SM FEW030=



000
FTUS42 KRAH 051711 AAC
TAFINT
TAF AMD
KINT 051711Z 0517/0612 03012G22KT 2SM RA BR BKN008 OVC025
      TEMPO 0517/0518 1 1/2SM RA BR BKN006
     FM051800 03011KT 1 1/2SM -RA BR OVC003
     FM052200 02011KT 1SM -RAPL BR OVC002
     FM060100 02010KT 2SM -SNPL BR OVC005
     FM060300 35010KT 5SM BR OVC025=



000
FTUS42 KRAH 051711 AAC
TAFINT
TAF AMD
KINT 051711Z 0517/0612 03012G22KT 2SM RA BR BKN008 OVC025
      TEMPO 0517/0518 1 1/2SM RA BR BKN006
     FM051800 03011KT 1 1/2SM -RA BR OVC003
     FM052200 02011KT 1SM -RAPL BR OVC002
     FM060100 02010KT 2SM -SNPL BR OVC005
     FM060300 35010KT 5SM BR OVC025=



000
FTUS42 KRAH 051710 AAC
TAFFAY
TAF AMD
KFAY 051710Z 0517/0612 22010G20KT P6SM SCT015 BKN060 WS012/23035KT
      TEMPO 0517/0520 BKN015
     FM052000 03012G20KT 3SM -RA BKN012 OVC030
     FM052300 04010KT 1 1/2SM -RA BR OVC004=



000
FTUS42 KRAH 051710 AAC
TAFFAY
TAF AMD
KFAY 051710Z 0517/0612 22010G20KT P6SM SCT015 BKN060 WS012/23035KT
      TEMPO 0517/0520 BKN015
     FM052000 03012G20KT 3SM -RA BKN012 OVC030
     FM052300 04010KT 1 1/2SM -RA BR OVC004=



000
FTUS42 KRAH 051709 AAB
TAFRDU
TAF AMD
KRDU 051709Z 0517/0612 03010G18KT 1 1/2SM -RA BR OVC005
     FM052300 03010KT 1SM -FZRA BR OVC003=



000
FTUS42 KRAH 051709 AAB
TAFRDU
TAF AMD
KRDU 051709Z 0517/0612 03010G18KT 1 1/2SM -RA BR OVC005
     FM052300 03010KT 1SM -FZRA BR OVC003=



000
FTUS42 KRAH 051709 AAB
TAFRDU
TAF AMD
KRDU 051709Z 0517/0612 03010G18KT 1 1/2SM -RA BR OVC005
     FM052300 03010KT 1SM -FZRA BR OVC003=



000
FTUS42 KRAH 051647 AAC
TAFGSO
TAF AMD
KGSO 051647Z 0517/0612 04012G22KT 2SM -RA BR OVC006
     FM052200 02011KT 1SM -RAPL BR OVC002
     FM060100 02010KT 2SM -SNPL BR OVC005
     FM060300 35010KT 5SM BR OVC025=



000
FTUS42 KRAH 051647 AAC
TAFGSO
TAF AMD
KGSO 051647Z 0517/0612 04012G22KT 2SM -RA BR OVC006
     FM052200 02011KT 1SM -RAPL BR OVC002
     FM060100 02010KT 2SM -SNPL BR OVC005
     FM060300 35010KT 5SM BR OVC025=



000
FTUS42 KRAH 051607 AAB
TAFGSO
TAF AMD
KGSO 051607Z 0516/0612 03012G22KT 5SM -RA OVC006 WS012/23040KT
      TEMPO 0516/0517 2SM RA BR OVC004
     FM051700 03001KT 1 1/2SM -RA BR OVC003
     FM052200 02011KT 1SM -RAPL BR OVC002
     FM060100 02010KT 2SM -SNPL BR OVC005
     FM060300 35010KT 5SM BR OVC025=



000
FTUS42 KRAH 051607 AAB
TAFGSO
TAF AMD
KGSO 051607Z 0516/0612 03012G22KT 5SM -RA OVC006 WS012/23040KT
      TEMPO 0516/0517 2SM RA BR OVC004
     FM051700 03001KT 1 1/2SM -RA BR OVC003
     FM052200 02011KT 1SM -RAPL BR OVC002
     FM060100 02010KT 2SM -SNPL BR OVC005
     FM060300 35010KT 5SM BR OVC025=



000
FTUS42 KRAH 051607 AAB
TAFFAY
TAF AMD
KFAY 051607Z 0516/0612 22010G20KT P6SM SCT015 BKN060
      TEMPO 0516/0517 BKN015
     FM051700 03012G20KT 4SM -RA BKN012 OVC030
     FM052100 04010KT 1 1/2SM -RA BR OVC004=



000
FTUS42 KRAH 051607 AAB
TAFFAY
TAF AMD
KFAY 051607Z 0516/0612 22010G20KT P6SM SCT015 BKN060
      TEMPO 0516/0517 BKN015
     FM051700 03012G20KT 4SM -RA BKN012 OVC030
     FM052100 04010KT 1 1/2SM -RA BR OVC004=



000
FTUS42 KRAH 051607 AAB
TAFFAY
TAF AMD
KFAY 051607Z 0516/0612 22010G20KT P6SM SCT015 BKN060
      TEMPO 0516/0517 BKN015
     FM051700 03012G20KT 4SM -RA BKN012 OVC030
     FM052100 04010KT 1 1/2SM -RA BR OVC004=



000
FTUS42 KRAH 051607 AAB
TAFFAY
TAF AMD
KFAY 051607Z 0516/0612 22010G20KT P6SM SCT015 BKN060
      TEMPO 0516/0517 BKN015
     FM051700 03012G20KT 4SM -RA BKN012 OVC030
     FM052100 04010KT 1 1/2SM -RA BR OVC004=



000
FTUS42 KRAH 051607 AAB
TAFGSO
TAF AMD
KGSO 051607Z 0516/0612 03012G22KT 5SM -RA OVC006 WS012/23040KT
      TEMPO 0516/0517 2SM RA BR OVC004
     FM051700 03001KT 1 1/2SM -RA BR OVC003
     FM052200 02011KT 1SM -RAPL BR OVC002
     FM060100 02010KT 2SM -SNPL BR OVC005
     FM060300 35010KT 5SM BR OVC025=



000
FTUS42 KRAH 051607 AAB
TAFGSO
TAF AMD
KGSO 051607Z 0516/0612 03012G22KT 5SM -RA OVC006 WS012/23040KT
      TEMPO 0516/0517 2SM RA BR OVC004
     FM051700 03001KT 1 1/2SM -RA BR OVC003
     FM052200 02011KT 1SM -RAPL BR OVC002
     FM060100 02010KT 2SM -SNPL BR OVC005
     FM060300 35010KT 5SM BR OVC025=



000
FTUS42 KRAH 051606 AAB
TAFINT
TAF AMD
KINT 051606Z 0516/0612 03012G22KT 5SM -RA BKN008 OVC025
      WS012/23040KT
      TEMPO 0516/0517 2SM RA BR BKN006
     FM051700 03011KT 1 1/2SM -RA BR OVC003
     FM052200 02011KT 1SM -RAPL BR OVC002
     FM060100 02010KT 2SM -SNPL BR OVC005
     FM060300 35010KT 5SM BR OVC025=



000
FTUS42 KRAH 051606 AAB
TAFINT
TAF AMD
KINT 051606Z 0516/0612 03012G22KT 5SM -RA BKN008 OVC025
      WS012/23040KT
      TEMPO 0516/0517 2SM RA BR BKN006
     FM051700 03011KT 1 1/2SM -RA BR OVC003
     FM052200 02011KT 1SM -RAPL BR OVC002
     FM060100 02010KT 2SM -SNPL BR OVC005
     FM060300 35010KT 5SM BR OVC025=



000
FTUS42 KRAH 051606 AAB
TAFINT
TAF AMD
KINT 051606Z 0516/0612 03012G22KT 5SM -RA BKN008 OVC025
      WS012/23040KT
      TEMPO 0516/0517 2SM RA BR BKN006
     FM051700 03011KT 1 1/2SM -RA BR OVC003
     FM052200 02011KT 1SM -RAPL BR OVC002
     FM060100 02010KT 2SM -SNPL BR OVC005
     FM060300 35010KT 5SM BR OVC025=



000
FTUS42 KRAH 051606 AAB
TAFINT
TAF AMD
KINT 051606Z 0516/0612 03012G22KT 5SM -RA BKN008 OVC025
      WS012/23040KT
      TEMPO 0516/0517 2SM RA BR BKN006
     FM051700 03011KT 1 1/2SM -RA BR OVC003
     FM052200 02011KT 1SM -RAPL BR OVC002
     FM060100 02010KT 2SM -SNPL BR OVC005
     FM060300 35010KT 5SM BR OVC025=



000
FTUS42 KRAH 051335 AAA
TAFRWI
TAF AMD
KRWI 051335Z 0514/0612 03012G20KT 4SM -RA OVC006 WS012/23035KT
      TEMPO 0514/0517 1 1/2SM -RA BR OVC004
     FM052000 36012G22KT 1 1/2SM -RA BR OVC005
     FM060000 36010G20KT 1SM -FZRA BR OVC003=



000
FTUS42 KRAH 051335 AAA
TAFRWI
TAF AMD
KRWI 051335Z 0514/0612 03012G20KT 4SM -RA OVC006 WS012/23035KT
      TEMPO 0514/0517 1 1/2SM -RA BR OVC004
     FM052000 36012G22KT 1 1/2SM -RA BR OVC005
     FM060000 36010G20KT 1SM -FZRA BR OVC003=



000
FTUS42 KRAH 051334 AAA
TAFFAY
TAF AMD
KFAY 051334Z 0514/0612 22010G20KT P6SM SCT015 BKN060
      TEMPO 0514/0516 BKN015
     FM051600 03012G20KT 4SM -RA BKN012 OVC030
     FM052100 04010KT 1 1/2SM -RA BR OVC004=



000
FTUS42 KRAH 051334 AAA
TAFFAY
TAF AMD
KFAY 051334Z 0514/0612 22010G20KT P6SM SCT015 BKN060
      TEMPO 0514/0516 BKN015
     FM051600 03012G20KT 4SM -RA BKN012 OVC030
     FM052100 04010KT 1 1/2SM -RA BR OVC004=



000
FTUS42 KRAH 051332 AAA
TAFRDU
TAF AMD
KRDU 051332Z 0514/0612 03012G20KT 4SM -RA OVC006 WS012/23035KT
      TEMPO 0514/0517 1 1/2SM RA BR OVC004
     FM051800 03010G18KT 1 1/2SM -RA BR OVC005
     FM052300 03010KT 1SM -FZRA BR OVC003=



000
FTUS42 KRAH 051332 AAA
TAFRDU
TAF AMD
KRDU 051332Z 0514/0612 03012G20KT 4SM -RA OVC006 WS012/23035KT
      TEMPO 0514/0517 1 1/2SM RA BR OVC004
     FM051800 03010G18KT 1 1/2SM -RA BR OVC005
     FM052300 03010KT 1SM -FZRA BR OVC003=



000
FTUS42 KRAH 051331 AAA
TAFGSO
TAF AMD
KGSO 051331Z 0514/0612 03012G22KT 3SM -RA OVC006 WS012/23040KT
      TEMPO 0514/0516 2SM RA BR OVC004
     FM051600 03001KT 1 1/2SM -RA BR OVC003
     FM052200 02011KT 1SM -RAPL BR OVC002
     FM060100 02010KT 2SM -SNPL BR OVC005
     FM060300 35010KT 5SM BR OVC025=



000
FTUS42 KRAH 051331 AAA
TAFGSO
TAF AMD
KGSO 051331Z 0514/0612 03012G22KT 3SM -RA OVC006 WS012/23040KT
      TEMPO 0514/0516 2SM RA BR OVC004
     FM051600 03001KT 1 1/2SM -RA BR OVC003
     FM052200 02011KT 1SM -RAPL BR OVC002
     FM060100 02010KT 2SM -SNPL BR OVC005
     FM060300 35010KT 5SM BR OVC025=



000
FTUS42 KRAH 051331 AAA
TAFGSO
TAF AMD
KGSO 051331Z 0514/0612 03012G22KT 3SM -RA OVC006 WS012/23040KT
      TEMPO 0514/0516 2SM RA BR OVC004
     FM051600 03001KT 1 1/2SM -RA BR OVC003
     FM052200 02011KT 1SM -RAPL BR OVC002
     FM060100 02010KT 2SM -SNPL BR OVC005
     FM060300 35010KT 5SM BR OVC025=



000
FTUS42 KRAH 051331 AAA
TAFGSO
TAF AMD
KGSO 051331Z 0514/0612 03012G22KT 3SM -RA OVC006 WS012/23040KT
      TEMPO 0514/0516 2SM RA BR OVC004
     FM051600 03001KT 1 1/2SM -RA BR OVC003
     FM052200 02011KT 1SM -RAPL BR OVC002
     FM060100 02010KT 2SM -SNPL BR OVC005
     FM060300 35010KT 5SM BR OVC025=



000
FTUS42 KRAH 051330 AAA
TAFINT
TAF AMD
KINT 051330Z 0514/0612 03012G22KT 3SM -RA SCT006 OVC015
      WS012/23040KT
      TEMPO 0514/0516 2SM RA BR BKN006
     FM051600 03011KT 1 1/2SM -RA BR OVC003
     FM052200 02011KT 1SM -RAPL BR OVC002
     FM060100 02010KT 2SM -SNPL BR OVC005
     FM060300 35010KT 5SM BR OVC025=



000
FTUS42 KRAH 051330 AAA
TAFINT
TAF AMD
KINT 051330Z 0514/0612 03012G22KT 3SM -RA SCT006 OVC015
      WS012/23040KT
      TEMPO 0514/0516 2SM RA BR BKN006
     FM051600 03011KT 1 1/2SM -RA BR OVC003
     FM052200 02011KT 1SM -RAPL BR OVC002
     FM060100 02010KT 2SM -SNPL BR OVC005
     FM060300 35010KT 5SM BR OVC025=



000
FTUS42 KRAH 051149
TAFRDU
TAF
KRDU 051149Z 0512/0612 22007KT P6SM SCT004 OVC025 WS012/23040KT
     FM051300 03012G20KT 4SM -RA OVC006 WS012/23035KT
      TEMPO 0514/0517 2SM -RA BR OVC004
     FM051800 03010G18KT 1 1/2SM -RA BR OVC005
     FM052300 03010KT 1SM -FZRA BR OVC003=



000
FTUS42 KRAH 051149
TAFFAY
TAF
KFAY 051149Z 0512/0612 21008KT P6SM FEW060 SCT250 WS012/23040KT
     FM051600 03012G20KT 4SM -RA BKN012 OVC030
     FM052100 04010KT 1 1/2SM -RA BR OVC004=



000
FTUS42 KRAH 051149
TAFGSO
TAF
KGSO 051149Z 0512/0612 06012G22KT 3SM -RA OVC006 WS012/23040KT
     FM051600 03001KT 1 1/2SM -RA BR OVC003
     FM052200 02011KT 1SM -RAPL BR OVC002
     FM060100 02010KT 2SM -SNPL BR OVC005
     FM060300 35010KT 5SM BR OVC025=



000
FTUS42 KRAH 051149
TAFINT
TAF
KINT 051149Z 0512/0612 06012G22KT 3SM -RA OVC006 WS012/23040KT
     FM051600 03011KT 1 1/2SM -RA BR OVC003
     FM052200 02011KT 1SM -RAPL BR OVC002
     FM060100 02010KT 2SM -SNPL BR OVC005
     FM060300 35010KT 5SM BR OVC025=



000
FTUS42 KRAH 051149
TAFRDU
TAF
KRDU 051149Z 0512/0612 22007KT P6SM SCT004 OVC025 WS012/23040KT
     FM051300 03012G20KT 4SM -RA OVC006 WS012/23035KT
      TEMPO 0514/0517 2SM -RA BR OVC004
     FM051800 03010G18KT 1 1/2SM -RA BR OVC005
     FM052300 03010KT 1SM -FZRA BR OVC003=



000
FTUS42 KRAH 051149
TAFRWI
TAF
KRWI 051149Z 0512/0612 22007KT P6SM SCT004 OVC025 WS012/23040KT
     FM051330 03012G20KT 4SM -RA OVC006 WS012/23035KT
      TEMPO 0514/0517 1 1/2SM -RA BR OVC004
     FM052000 36012G22KT 1 1/2SM -RA BR OVC005
     FM060000 36010G20KT 1SM -FZRA BR OVC003=



000
FTUS42 KRAH 051149
TAFFAY
TAF
KFAY 051149Z 0512/0612 21008KT P6SM FEW060 SCT250 WS012/23040KT
     FM051600 03012G20KT 4SM -RA BKN012 OVC030
     FM052100 04010KT 1 1/2SM -RA BR OVC004=



000
FTUS42 KRAH 051149
TAFINT
TAF
KINT 051149Z 0512/0612 06012G22KT 3SM -RA OVC006 WS012/23040KT
     FM051600 03011KT 1 1/2SM -RA BR OVC003
     FM052200 02011KT 1SM -RAPL BR OVC002
     FM060100 02010KT 2SM -SNPL BR OVC005
     FM060300 35010KT 5SM BR OVC025=



000
FTUS42 KRAH 051149
TAFRWI
TAF
KRWI 051149Z 0512/0612 22007KT P6SM SCT004 OVC025 WS012/23040KT
     FM051330 03012G20KT 4SM -RA OVC006 WS012/23035KT
      TEMPO 0514/0517 1 1/2SM -RA BR OVC004
     FM052000 36012G22KT 1 1/2SM -RA BR OVC005
     FM060000 36010G20KT 1SM -FZRA BR OVC003=



000
FTUS42 KRAH 051149
TAFGSO
TAF
KGSO 051149Z 0512/0612 06012G22KT 3SM -RA OVC006 WS012/23040KT
     FM051600 03001KT 1 1/2SM -RA BR OVC003
     FM052200 02011KT 1SM -RAPL BR OVC002
     FM060100 02010KT 2SM -SNPL BR OVC005
     FM060300 35010KT 5SM BR OVC025=



000
FTUS42 KRAH 051149
TAFRDU
TAF
KRDU 051149Z 0512/0612 22007KT P6SM SCT004 OVC025 WS012/23040KT
     FM051300 03012G20KT 4SM -RA OVC006 WS012/23035KT
      TEMPO 0514/0517 2SM -RA BR OVC004
     FM051800 03010G18KT 1 1/2SM -RA BR OVC005
     FM052300 03010KT 1SM -FZRA BR OVC003=



000
FTUS42 KRAH 051149
TAFFAY
TAF
KFAY 051149Z 0512/0612 21008KT P6SM FEW060 SCT250 WS012/23040KT
     FM051600 03012G20KT 4SM -RA BKN012 OVC030
     FM052100 04010KT 1 1/2SM -RA BR OVC004=



000
FTUS42 KRAH 051149
TAFINT
TAF
KINT 051149Z 0512/0612 06012G22KT 3SM -RA OVC006 WS012/23040KT
     FM051600 03011KT 1 1/2SM -RA BR OVC003
     FM052200 02011KT 1SM -RAPL BR OVC002
     FM060100 02010KT 2SM -SNPL BR OVC005
     FM060300 35010KT 5SM BR OVC025=



000
FTUS42 KRAH 051149
TAFRWI
TAF
KRWI 051149Z 0512/0612 22007KT P6SM SCT004 OVC025 WS012/23040KT
     FM051330 03012G20KT 4SM -RA OVC006 WS012/23035KT
      TEMPO 0514/0517 1 1/2SM -RA BR OVC004
     FM052000 36012G22KT 1 1/2SM -RA BR OVC005
     FM060000 36010G20KT 1SM -FZRA BR OVC003=



000
FTUS42 KRAH 051149
TAFRDU
TAF
KRDU 051149Z 0512/0612 22007KT P6SM SCT004 OVC025 WS012/23040KT
     FM051300 03012G20KT 4SM -RA OVC006 WS012/23035KT
      TEMPO 0514/0517 2SM -RA BR OVC004
     FM051800 03010G18KT 1 1/2SM -RA BR OVC005
     FM052300 03010KT 1SM -FZRA BR OVC003=



000
FTUS42 KRAH 051149
TAFGSO
TAF
KGSO 051149Z 0512/0612 06012G22KT 3SM -RA OVC006 WS012/23040KT
     FM051600 03001KT 1 1/2SM -RA BR OVC003
     FM052200 02011KT 1SM -RAPL BR OVC002
     FM060100 02010KT 2SM -SNPL BR OVC005
     FM060300 35010KT 5SM BR OVC025=



000
FTUS42 KRAH 051149
TAFFAY
TAF
KFAY 051149Z 0512/0612 21008KT P6SM FEW060 SCT250 WS012/23040KT
     FM051600 03012G20KT 4SM -RA BKN012 OVC030
     FM052100 04010KT 1 1/2SM -RA BR OVC004=



000
FTUS42 KRAH 051149
TAFGSO
TAF
KGSO 051149Z 0512/0612 06012G22KT 3SM -RA OVC006 WS012/23040KT
     FM051600 03001KT 1 1/2SM -RA BR OVC003
     FM052200 02011KT 1SM -RAPL BR OVC002
     FM060100 02010KT 2SM -SNPL BR OVC005
     FM060300 35010KT 5SM BR OVC025=



000
FTUS42 KRAH 051149
TAFINT
TAF
KINT 051149Z 0512/0612 06012G22KT 3SM -RA OVC006 WS012/23040KT
     FM051600 03011KT 1 1/2SM -RA BR OVC003
     FM052200 02011KT 1SM -RAPL BR OVC002
     FM060100 02010KT 2SM -SNPL BR OVC005
     FM060300 35010KT 5SM BR OVC025=



000
FTUS42 KRAH 051149
TAFRWI
TAF
KRWI 051149Z 0512/0612 22007KT P6SM SCT004 OVC025 WS012/23040KT
     FM051330 03012G20KT 4SM -RA OVC006 WS012/23035KT
      TEMPO 0514/0517 1 1/2SM -RA BR OVC004
     FM052000 36012G22KT 1 1/2SM -RA BR OVC005
     FM060000 36010G20KT 1SM -FZRA BR OVC003=



000
FTUS42 KRAH 050545
TAFRWI
TAF
KRWI 050545Z 0506/0606 21008KT P6SM FEW040 SCT250 WS012/23040KT
      TEMPO 0510/0512 VRB10G20KT 6SM -SHRA BKN015 OVC035
     FM051200 03012G20KT 4SM -RA OVC006
      TEMPO 0513/0517 2SM -RA BR OVC004
     FM052000 03010G18KT 6SM -RA OVC004=



000
FTUS42 KRAH 050545
TAFINT
TAF
KINT 050545Z 0506/0606 22008KT P6SM SCT030 SCT250 WS012/23040KT
     FM050800 25005KT 5SM -SHRA BKN015 OVC030 WS012/23040KT
     FM051000 02012G20KT 3SM -RA OVC006
      TEMPO 0516/0520 2SM -RA BR
     FM052000 02014KT 1 1/2SM -RA BR OVC004=



000
FTUS42 KRAH 050545
TAFINT
TAF
KINT 050545Z 0506/0606 22008KT P6SM SCT030 SCT250 WS012/23040KT
     FM050800 25005KT 5SM -SHRA BKN015 OVC030 WS012/23040KT
     FM051000 02012G20KT 3SM -RA OVC006
      TEMPO 0516/0520 2SM -RA BR
     FM052000 02014KT 1 1/2SM -RA BR OVC004=



000
FTUS42 KRAH 050545
TAFFAY
TAF
KFAY 050545Z 0506/0606 21008KT P6SM FEW060 SCT250 WS012/23040KT
      TEMPO 0507/0511 2SM BR SCT002
     FM051630 03012G20KT 4SM -RA BKN012 OVC030=



000
FTUS42 KRAH 050545
TAFRDU
TAF
KRDU 050545Z 0506/0606 22007KT P6SM SCT070 BKN250 WS012/23040KT
      TEMPO 0510/0512 VRB10G20KT 6SM -SHRA BKN015 OVC035
     FM051200 03012G20KT 4SM -RA OVC006
      TEMPO 0513/0517 2SM -RA BR OVC004
     FM052000 03010G18KT 1SM -RA BR BKN014 OVC030=



000
FTUS42 KRAH 050545
TAFRWI
TAF
KRWI 050545Z 0506/0606 21008KT P6SM FEW040 SCT250 WS012/23040KT
      TEMPO 0510/0512 VRB10G20KT 6SM -SHRA BKN015 OVC035
     FM051200 03012G20KT 4SM -RA OVC006
      TEMPO 0513/0517 2SM -RA BR OVC004
     FM052000 03010G18KT 6SM -RA OVC004=



000
FTUS42 KRAH 050545
TAFGSO
TAF
KGSO 050545Z 0506/0606 22008KT P6SM SCT030 SCT250 WS012/23040KT
     FM050730 25005KT 5SM -SHRA BKN015 OVC030 WS012/23040KT
     FM050900 02012G20KT 3SM -RA OVC006
      TEMPO 0516/0520 2SM -RA BR
     FM052000 02014KT 1 1/2SM -RA BR OVC004=



000
FTUS42 KRAH 050545
TAFRDU
TAF
KRDU 050545Z 0506/0606 22007KT P6SM SCT070 BKN250 WS012/23040KT
      TEMPO 0510/0512 VRB10G20KT 6SM -SHRA BKN015 OVC035
     FM051200 03012G20KT 4SM -RA OVC006
      TEMPO 0513/0517 2SM -RA BR OVC004
     FM052000 03010G18KT 1SM -RA BR BKN014 OVC030=



000
FTUS42 KRAH 050545
TAFFAY
TAF
KFAY 050545Z 0506/0606 21008KT P6SM FEW060 SCT250 WS012/23040KT
      TEMPO 0507/0511 2SM BR SCT002
     FM051630 03012G20KT 4SM -RA BKN012 OVC030=



000
FTUS42 KRAH 050545
TAFGSO
TAF
KGSO 050545Z 0506/0606 22008KT P6SM SCT030 SCT250 WS012/23040KT
     FM050730 25005KT 5SM -SHRA BKN015 OVC030 WS012/23040KT
     FM050900 02012G20KT 3SM -RA OVC006
      TEMPO 0516/0520 2SM -RA BR
     FM052000 02014KT 1 1/2SM -RA BR OVC004=



000
FTUS42 KRAH 050545
TAFRDU
TAF
KRDU 050545Z 0506/0606 22007KT P6SM SCT070 BKN250 WS012/23040KT
      TEMPO 0510/0512 VRB10G20KT 6SM -SHRA BKN015 OVC035
     FM051200 03012G20KT 4SM -RA OVC006
      TEMPO 0513/0517 2SM -RA BR OVC004
     FM052000 03010G18KT 1SM -RA BR BKN014 OVC030=



000
FTUS42 KRAH 050545
TAFFAY
TAF
KFAY 050545Z 0506/0606 21008KT P6SM FEW060 SCT250 WS012/23040KT
      TEMPO 0507/0511 2SM BR SCT002
     FM051630 03012G20KT 4SM -RA BKN012 OVC030=



000
FTUS42 KRAH 050545
TAFGSO
TAF
KGSO 050545Z 0506/0606 22008KT P6SM SCT030 SCT250 WS012/23040KT
     FM050730 25005KT 5SM -SHRA BKN015 OVC030 WS012/23040KT
     FM050900 02012G20KT 3SM -RA OVC006
      TEMPO 0516/0520 2SM -RA BR
     FM052000 02014KT 1 1/2SM -RA BR OVC004=



000
FTUS42 KRAH 050545
TAFINT
TAF
KINT 050545Z 0506/0606 22008KT P6SM SCT030 SCT250 WS012/23040KT
     FM050800 25005KT 5SM -SHRA BKN015 OVC030 WS012/23040KT
     FM051000 02012G20KT 3SM -RA OVC006
      TEMPO 0516/0520 2SM -RA BR
     FM052000 02014KT 1 1/2SM -RA BR OVC004=



000
FTUS42 KRAH 050545
TAFRWI
TAF
KRWI 050545Z 0506/0606 21008KT P6SM FEW040 SCT250 WS012/23040KT
      TEMPO 0510/0512 VRB10G20KT 6SM -SHRA BKN015 OVC035
     FM051200 03012G20KT 4SM -RA OVC006
      TEMPO 0513/0517 2SM -RA BR OVC004
     FM052000 03010G18KT 6SM -RA OVC004=



000
FTUS42 KRAH 050545
TAFINT
TAF
KINT 050545Z 0506/0606 22008KT P6SM SCT030 SCT250 WS012/23040KT
     FM050800 25005KT 5SM -SHRA BKN015 OVC030 WS012/23040KT
     FM051000 02012G20KT 3SM -RA OVC006
      TEMPO 0516/0520 2SM -RA BR
     FM052000 02014KT 1 1/2SM -RA BR OVC004=



000
FTUS42 KRAH 050545
TAFGSO
TAF
KGSO 050545Z 0506/0606 22008KT P6SM SCT030 SCT250 WS012/23040KT
     FM050730 25005KT 5SM -SHRA BKN015 OVC030 WS012/23040KT
     FM050900 02012G20KT 3SM -RA OVC006
      TEMPO 0516/0520 2SM -RA BR
     FM052000 02014KT 1 1/2SM -RA BR OVC004=



000
FTUS42 KRAH 050545
TAFRDU
TAF
KRDU 050545Z 0506/0606 22007KT P6SM SCT070 BKN250 WS012/23040KT
      TEMPO 0510/0512 VRB10G20KT 6SM -SHRA BKN015 OVC035
     FM051200 03012G20KT 4SM -RA OVC006
      TEMPO 0513/0517 2SM -RA BR OVC004
     FM052000 03010G18KT 1SM -RA BR BKN014 OVC030=



000
FTUS42 KRAH 050545
TAFFAY
TAF
KFAY 050545Z 0506/0606 21008KT P6SM FEW060 SCT250 WS012/23040KT
      TEMPO 0507/0511 2SM BR SCT002
     FM051630 03012G20KT 4SM -RA BKN012 OVC030=



000
FTUS42 KRAH 050545
TAFRWI
TAF
KRWI 050545Z 0506/0606 21008KT P6SM FEW040 SCT250 WS012/23040KT
      TEMPO 0510/0512 VRB10G20KT 6SM -SHRA BKN015 OVC035
     FM051200 03012G20KT 4SM -RA OVC006
      TEMPO 0513/0517 2SM -RA BR OVC004
     FM052000 03010G18KT 6SM -RA OVC004=



000
FTUS42 KRAH 050217 AAB
TAFGSO
TAF AMD
KGSO 050217Z 0502/0524 22008KT P6SM SCT030 SCT250 WS012/23040KT
     FM050700 25005KT 5SM -SHRA BKN015 OVC030 WS012/23040KT
     FM050900 02012G20KT 3SM -RA OVC006
      TEMPO 0516/0520 2SM -RA BR=



000
FTUS42 KRAH 050217 AAB
TAFGSO
TAF AMD
KGSO 050217Z 0502/0524 22008KT P6SM SCT030 SCT250 WS012/23040KT
     FM050700 25005KT 5SM -SHRA BKN015 OVC030 WS012/23040KT
     FM050900 02012G20KT 3SM -RA OVC006
      TEMPO 0516/0520 2SM -RA BR=



000
FTUS42 KRAH 050217 AAB
TAFINT
TAF AMD
KINT 050217Z 0502/0524 22008KT P6SM SCT030 SCT250 WS012/23040KT
     FM050700 25005KT 5SM -SHRA BKN015 OVC030 WS012/23040KT
     FM050900 02012G20KT 3SM -RA OVC006
      TEMPO 0516/0520 2SM -RA BR=



000
FTUS42 KRAH 050217 AAB
TAFINT
TAF AMD
KINT 050217Z 0502/0524 22008KT P6SM SCT030 SCT250 WS012/23040KT
     FM050700 25005KT 5SM -SHRA BKN015 OVC030 WS012/23040KT
     FM050900 02012G20KT 3SM -RA OVC006
      TEMPO 0516/0520 2SM -RA BR=



000
FTUS42 KRAH 050217 AAB
TAFGSO
TAF AMD
KGSO 050217Z 0502/0524 22008KT P6SM SCT030 SCT250 WS012/23040KT
     FM050700 25005KT 5SM -SHRA BKN015 OVC030 WS012/23040KT
     FM050900 02012G20KT 3SM -RA OVC006
      TEMPO 0516/0520 2SM -RA BR=



000
FTUS42 KRAH 050217 AAB
TAFGSO
TAF AMD
KGSO 050217Z 0502/0524 22008KT P6SM SCT030 SCT250 WS012/23040KT
     FM050700 25005KT 5SM -SHRA BKN015 OVC030 WS012/23040KT
     FM050900 02012G20KT 3SM -RA OVC006
      TEMPO 0516/0520 2SM -RA BR=



000
FTUS42 KRAH 050210 AAA
TAFRDU
TAF AMD
KRDU 050210Z 0502/0524 22007KT P6SM SCT070 BKN250 WS012/23040KT
      TEMPO 0510/0512 VRB10G20KT 6SM -SHRA BKN015 OVC035
     FM051200 03012G20KT 4SM -RA OVC006
      TEMPO 0513/0517 2SM -RA BR OVC004
     FM052000 03010G18KT 6SM -PL BKN014 OVC030=



000
FTUS42 KRAH 050210 AAA
TAFRDU
TAF AMD
KRDU 050210Z 0502/0524 22007KT P6SM SCT070 BKN250 WS012/23040KT
      TEMPO 0510/0512 VRB10G20KT 6SM -SHRA BKN015 OVC035
     FM051200 03012G20KT 4SM -RA OVC006
      TEMPO 0513/0517 2SM -RA BR OVC004
     FM052000 03010G18KT 6SM -PL BKN014 OVC030=



000
FTUS42 KRAH 050042 AAA
TAFGSO
TAF AMD
KGSO 050042Z 0501/0524 22008KT P6SM SCT030 SCT250 WS012/23040KT
      TEMPO 0502/0504 BKN030
     FM050700 25005KT 5SM -SHRA BKN015 OVC030 WS012/23040KT
     FM050900 02012G20KT 3SM -RA OVC006
      TEMPO 0516/0520 2SM -RA BR=



000
FTUS42 KRAH 050042 AAA
TAFINT
TAF AMD
KINT 050042Z 0501/0524 22008KT P6SM SCT030 SCT250 WS012/23040KT
      TEMPO 0501/0503 BKN030
     FM050700 25005KT 5SM -SHRA BKN015 OVC030 WS012/23040KT
     FM050900 02012G20KT 3SM -RA OVC006
      TEMPO 0516/0520 2SM -RA BR=



000
FTUS42 KRAH 050042 AAA
TAFINT
TAF AMD
KINT 050042Z 0501/0524 22008KT P6SM SCT030 SCT250 WS012/23040KT
      TEMPO 0501/0503 BKN030
     FM050700 25005KT 5SM -SHRA BKN015 OVC030 WS012/23040KT
     FM050900 02012G20KT 3SM -RA OVC006
      TEMPO 0516/0520 2SM -RA BR=



000
FTUS42 KRAH 050042 AAA
TAFGSO
TAF AMD
KGSO 050042Z 0501/0524 22008KT P6SM SCT030 SCT250 WS012/23040KT
      TEMPO 0502/0504 BKN030
     FM050700 25005KT 5SM -SHRA BKN015 OVC030 WS012/23040KT
     FM050900 02012G20KT 3SM -RA OVC006
      TEMPO 0516/0520 2SM -RA BR=



000
FTUS42 KRAH 042342 CCA
TAFGSO
TAF COR
KGSO 042342Z 0500/0524 22008G16KT P6SM SCT030 SCT250
     FM050700 25005KT 5SM -SHRA BKN015 OVC030
     FM050900 02012G20KT 3SM -RA OVC006
      TEMPO 0516/0520 2SM -RA BR=



000
FTUS42 KRAH 042342 CCA
TAFGSO
TAF COR
KGSO 042342Z 0500/0524 22008G16KT P6SM SCT030 SCT250
     FM050700 25005KT 5SM -SHRA BKN015 OVC030
     FM050900 02012G20KT 3SM -RA OVC006
      TEMPO 0516/0520 2SM -RA BR=



000
FTUS42 KRAH 042342 CCA
TAFGSO
TAF COR
KGSO 042342Z 0500/0524 22008G16KT P6SM SCT030 SCT250
     FM050700 25005KT 5SM -SHRA BKN015 OVC030
     FM050900 02012G20KT 3SM -RA OVC006
      TEMPO 0516/0520 2SM -RA BR=



000
FTUS42 KRAH 042340
TAFINT
TAF
KINT 042340Z 0500/0524 22008G16KT P6SM SCT028 SCT250
      TEMPO 0500/0501 BKN025
     FM050700 25005KT 5SM -SHRA BKN015 OVC030
     FM050900 02012G20KT 3SM -RA OVC006
      TEMPO 0516/0520 2SM -RA BR=



000
FTUS42 KRAH 042340
TAFGSO
TAF
KGSO 042340Z 0500/0524 22008G16KT P6SM SCT028 SCT250
      TEMPO 0500/0501 BKN025
     FM050700 25005KT 5SM -SHRA BKN015 OVC030
     FM050900 02012G20KT 3SM -RA OVC006
      TEMPO 0516/0520 2SM -RA BR=



000
FTUS42 KRAH 042340
TAFINT
TAF
KINT 042340Z 0500/0524 22008G16KT P6SM SCT028 SCT250
      TEMPO 0500/0501 BKN025
     FM050700 25005KT 5SM -SHRA BKN015 OVC030
     FM050900 02012G20KT 3SM -RA OVC006
      TEMPO 0516/0520 2SM -RA BR=



000
FTUS42 KRAH 042340
TAFRDU
TAF
KRDU 042340Z 0500/0524 22010G18KT P6SM FEW040 SCT250
     FM050200 21008KT P6SM FEW040 SCT250 WS012/23040KT
      TEMPO 0510/0512 VRB10G20KT 6SM -SHRA BKN015 OVC035
     FM051200 03012G20KT 4SM -RA OVC006
      TEMPO 0513/0517 2SM -RA BR OVC004
     FM052000 03010G18KT 6SM -PL BKN014 OVC030=



000
FTUS42 KRAH 042340
TAFFAY
TAF
KFAY 042340Z 0500/0524 20009G18KT P6SM FEW060 SCT250
     FM050200 21008KT P6SM FEW060 SCT250 WS012/23040KT
      TEMPO 0507/0511 2SM BR SCT002
     FM051630 03012G20KT 4SM -RA BKN012 OVC030=



000
FTUS42 KRAH 042340
TAFGSO
TAF
KGSO 042340Z 0500/0524 22008G16KT P6SM SCT028 SCT250
      TEMPO 0500/0501 BKN025
     FM050700 25005KT 5SM -SHRA BKN015 OVC030
     FM050900 02012G20KT 3SM -RA OVC006
      TEMPO 0516/0520 2SM -RA BR=



000
FTUS42 KRAH 042340
TAFRWI
TAF
KRWI 042340Z 0500/0524 22010G18KT P6SM FEW040 SCT250
     FM050200 21008KT P6SM FEW040 SCT250 WS012/23040KT
      TEMPO 0510/0512 VRB10G20KT 6SM -SHRA BKN015 OVC035
     FM051200 03012G20KT 4SM -RA OVC006
      TEMPO 0513/0517 2SM -RA BR OVC004
     FM052000 03010G18KT 6SM -PL BKN014 OVC030=



000
FTUS42 KRAH 042340
TAFRDU
TAF
KRDU 042340Z 0500/0524 22010G18KT P6SM FEW040 SCT250
     FM050200 21008KT P6SM FEW040 SCT250 WS012/23040KT
      TEMPO 0510/0512 VRB10G20KT 6SM -SHRA BKN015 OVC035
     FM051200 03012G20KT 4SM -RA OVC006
      TEMPO 0513/0517 2SM -RA BR OVC004
     FM052000 03010G18KT 6SM -PL BKN014 OVC030=



000
FTUS42 KRAH 042340
TAFINT
TAF
KINT 042340Z 0500/0524 22008G16KT P6SM SCT028 SCT250
      TEMPO 0500/0501 BKN025
     FM050700 25005KT 5SM -SHRA BKN015 OVC030
     FM050900 02012G20KT 3SM -RA OVC006
      TEMPO 0516/0520 2SM -RA BR=



000
FTUS42 KRAH 042340
TAFFAY
TAF
KFAY 042340Z 0500/0524 20009G18KT P6SM FEW060 SCT250
     FM050200 21008KT P6SM FEW060 SCT250 WS012/23040KT
      TEMPO 0507/0511 2SM BR SCT002
     FM051630 03012G20KT 4SM -RA BKN012 OVC030=



000
FTUS42 KRAH 042340
TAFGSO
TAF
KGSO 042340Z 0500/0524 22008G16KT P6SM SCT028 SCT250
      TEMPO 0500/0501 BKN025
     FM050700 25005KT 5SM -SHRA BKN015 OVC030
     FM050900 02012G20KT 3SM -RA OVC006
      TEMPO 0516/0520 2SM -RA BR=



000
FTUS42 KRAH 042340
TAFRWI
TAF
KRWI 042340Z 0500/0524 22010G18KT P6SM FEW040 SCT250
     FM050200 21008KT P6SM FEW040 SCT250 WS012/23040KT
      TEMPO 0510/0512 VRB10G20KT 6SM -SHRA BKN015 OVC035
     FM051200 03012G20KT 4SM -RA OVC006
      TEMPO 0513/0517 2SM -RA BR OVC004
     FM052000 03010G18KT 6SM -PL BKN014 OVC030=



000
FTUS42 KRAH 042340
TAFGSO
TAF
KGSO 042340Z 0500/0524 22008G16KT P6SM SCT028 SCT250
      TEMPO 0500/0501 BKN025
     FM050700 25005KT 5SM -SHRA BKN015 OVC030
     FM050900 02012G20KT 3SM -RA OVC006
      TEMPO 0516/0520 2SM -RA BR=



000
FTUS42 KRAH 042340
TAFRDU
TAF
KRDU 042340Z 0500/0524 22010G18KT P6SM FEW040 SCT250
     FM050200 21008KT P6SM FEW040 SCT250 WS012/23040KT
      TEMPO 0510/0512 VRB10G20KT 6SM -SHRA BKN015 OVC035
     FM051200 03012G20KT 4SM -RA OVC006
      TEMPO 0513/0517 2SM -RA BR OVC004
     FM052000 03010G18KT 6SM -PL BKN014 OVC030=



000
FTUS42 KRAH 042340
TAFFAY
TAF
KFAY 042340Z 0500/0524 20009G18KT P6SM FEW060 SCT250
     FM050200 21008KT P6SM FEW060 SCT250 WS012/23040KT
      TEMPO 0507/0511 2SM BR SCT002
     FM051630 03012G20KT 4SM -RA BKN012 OVC030=



000
FTUS42 KRAH 042340
TAFRWI
TAF
KRWI 042340Z 0500/0524 22010G18KT P6SM FEW040 SCT250
     FM050200 21008KT P6SM FEW040 SCT250 WS012/23040KT
      TEMPO 0510/0512 VRB10G20KT 6SM -SHRA BKN015 OVC035
     FM051200 03012G20KT 4SM -RA OVC006
      TEMPO 0513/0517 2SM -RA BR OVC004
     FM052000 03010G18KT 6SM -PL BKN014 OVC030=



000
FTUS42 KRAH 042340
TAFINT
TAF
KINT 042340Z 0500/0524 22008G16KT P6SM SCT028 SCT250
      TEMPO 0500/0501 BKN025
     FM050700 25005KT 5SM -SHRA BKN015 OVC030
     FM050900 02012G20KT 3SM -RA OVC006
      TEMPO 0516/0520 2SM -RA BR=



000
FTUS42 KRAH 042340
TAFRWI
TAF
KRWI 042340Z 0500/0524 22010G18KT P6SM FEW040 SCT250
     FM050200 21008KT P6SM FEW040 SCT250 WS012/23040KT
      TEMPO 0510/0512 VRB10G20KT 6SM -SHRA BKN015 OVC035
     FM051200 03012G20KT 4SM -RA OVC006
      TEMPO 0513/0517 2SM -RA BR OVC004
     FM052000 03010G18KT 6SM -PL BKN014 OVC030=



000
FTUS42 KRAH 042340
TAFFAY
TAF
KFAY 042340Z 0500/0524 20009G18KT P6SM FEW060 SCT250
     FM050200 21008KT P6SM FEW060 SCT250 WS012/23040KT
      TEMPO 0507/0511 2SM BR SCT002
     FM051630 03012G20KT 4SM -RA BKN012 OVC030=



000
FTUS42 KRAH 042340
TAFRDU
TAF
KRDU 042340Z 0500/0524 22010G18KT P6SM FEW040 SCT250
     FM050200 21008KT P6SM FEW040 SCT250 WS012/23040KT
      TEMPO 0510/0512 VRB10G20KT 6SM -SHRA BKN015 OVC035
     FM051200 03012G20KT 4SM -RA OVC006
      TEMPO 0513/0517 2SM -RA BR OVC004
     FM052000 03010G18KT 6SM -PL BKN014 OVC030=



000
FTUS42 KRAH 042319 AAA
TAFINT
TAF AMD
KINT 042319Z 0423/0518 22010G18KT P6SM SCT025 SCT250
      TEMPO 0423/0501 BKN025
     FM050700 25005KT 5SM -RA BR OVC016
     FM050900 01010KT 3SM -RA BR OVC006=



000
FTUS42 KRAH 042319 AAA
TAFINT
TAF AMD
KINT 042319Z 0423/0518 22010G18KT P6SM SCT025 SCT250
      TEMPO 0423/0501 BKN025
     FM050700 25005KT 5SM -RA BR OVC016
     FM050900 01010KT 3SM -RA BR OVC006=



000
FTUS42 KRAH 042319 AAA
TAFINT
TAF AMD
KINT 042319Z 0423/0518 22010G18KT P6SM SCT025 SCT250
      TEMPO 0423/0501 BKN025
     FM050700 25005KT 5SM -RA BR OVC016
     FM050900 01010KT 3SM -RA BR OVC006=



000
FTUS42 KRAH 041829 AAA
TAFRDU
TAF AMD
KRDU 041829Z 0418/0518 22015G28KT P6SM SCT018 BKN250
      TEMPO 0418/0420 BKN018
     FM042000 22015G25KT P6SM SCT024 BKN250
     FM050400 21010KT P6SM OVC060
     FM051000 01009KT 4SM -RA BR OVC006=



000
FTUS42 KRAH 041829 AAA
TAFRDU
TAF AMD
KRDU 041829Z 0418/0518 22015G28KT P6SM SCT018 BKN250
      TEMPO 0418/0420 BKN018
     FM042000 22015G25KT P6SM SCT024 BKN250
     FM050400 21010KT P6SM OVC060
     FM051000 01009KT 4SM -RA BR OVC006=



000
FTUS42 KRAH 041736
TAFRDU
TAF
KRDU 041736Z 0418/0518 22012G22KT P6SM BKN015
     FM042000 22015G25KT P6SM SCT024 BKN250
     FM050400 21010KT P6SM OVC060
     FM051000 01009KT 4SM -RA BR OVC006=



000
FTUS42 KRAH 041736
TAFFAY
TAF
KFAY 041736Z 0418/0518 22013G23KT P6SM SCT015 SCT035
     FM042300 21008KT P6SM SCT025
     FM050700 21010KT 3SM BR OVC003
     FM051300 23005KT 3SM -RA BR OVC004=



000
FTUS42 KRAH 041736
TAFGSO
TAF
KGSO 041736Z 0418/0518 22014G25KT P6SM SCT015 BKN250
      TEMPO 0418/0420 BKN015
     FM042300 22012KT P6SM SCT020
     FM050700 25005KT 5SM -RA BR OVC016
     FM050900 01010KT 3SM -RA BR OVC006=



000
FTUS42 KRAH 041736
TAFINT
TAF
KINT 041736Z 0418/0518 22014G25KT P6SM SCT015 BKN250
      TEMPO 0418/0420 BKN015
     FM042300 22012KT P6SM SCT020
     FM050700 25005KT 5SM -RA BR OVC016
     FM050900 01010KT 3SM -RA BR OVC006=



000
FTUS42 KRAH 041736
TAFRWI
TAF
KRWI 041736Z 0418/0518 21012KT 6SM BR OVC006
     FM041900 22015G25KT P6SM FEW012 SCT035
     FM042300 21012KT P6SM FEW012
     FM050400 21010KT 3SM BR OVC004
     FM051000 23006KT 3SM -RA BR OVC004
     FM051200 01013KT 4SM -RA BR OVC005=



000
FTUS42 KRAH 041736
TAFINT
TAF
KINT 041736Z 0418/0518 22014G25KT P6SM SCT015 BKN250
      TEMPO 0418/0420 BKN015
     FM042300 22012KT P6SM SCT020
     FM050700 25005KT 5SM -RA BR OVC016
     FM050900 01010KT 3SM -RA BR OVC006=



000
FTUS42 KRAH 041736
TAFRWI
TAF
KRWI 041736Z 0418/0518 21012KT 6SM BR OVC006
     FM041900 22015G25KT P6SM FEW012 SCT035
     FM042300 21012KT P6SM FEW012
     FM050400 21010KT 3SM BR OVC004
     FM051000 23006KT 3SM -RA BR OVC004
     FM051200 01013KT 4SM -RA BR OVC005=



000
FTUS42 KRAH 041736
TAFGSO
TAF
KGSO 041736Z 0418/0518 22014G25KT P6SM SCT015 BKN250
      TEMPO 0418/0420 BKN015
     FM042300 22012KT P6SM SCT020
     FM050700 25005KT 5SM -RA BR OVC016
     FM050900 01010KT 3SM -RA BR OVC006=



000
FTUS42 KRAH 041736
TAFGSO
TAF
KGSO 041736Z 0418/0518 22014G25KT P6SM SCT015 BKN250
      TEMPO 0418/0420 BKN015
     FM042300 22012KT P6SM SCT020
     FM050700 25005KT 5SM -RA BR OVC016
     FM050900 01010KT 3SM -RA BR OVC006=



000
FTUS42 KRAH 041736
TAFFAY
TAF
KFAY 041736Z 0418/0518 22013G23KT P6SM SCT015 SCT035
     FM042300 21008KT P6SM SCT025
     FM050700 21010KT 3SM BR OVC003
     FM051300 23005KT 3SM -RA BR OVC004=



000
FTUS42 KRAH 041736
TAFFAY
TAF
KFAY 041736Z 0418/0518 22013G23KT P6SM SCT015 SCT035
     FM042300 21008KT P6SM SCT025
     FM050700 21010KT 3SM BR OVC003
     FM051300 23005KT 3SM -RA BR OVC004=



000
FTUS42 KRAH 041736
TAFINT
TAF
KINT 041736Z 0418/0518 22014G25KT P6SM SCT015 BKN250
      TEMPO 0418/0420 BKN015
     FM042300 22012KT P6SM SCT020
     FM050700 25005KT 5SM -RA BR OVC016
     FM050900 01010KT 3SM -RA BR OVC006=



000
FTUS42 KRAH 041736
TAFRDU
TAF
KRDU 041736Z 0418/0518 22012G22KT P6SM BKN015
     FM042000 22015G25KT P6SM SCT024 BKN250
     FM050400 21010KT P6SM OVC060
     FM051000 01009KT 4SM -RA BR OVC006=



000
FTUS42 KRAH 041736
TAFFAY
TAF
KFAY 041736Z 0418/0518 22013G23KT P6SM SCT015 SCT035
     FM042300 21008KT P6SM SCT025
     FM050700 21010KT 3SM BR OVC003
     FM051300 23005KT 3SM -RA BR OVC004=



000
FTUS42 KRAH 041736
TAFRDU
TAF
KRDU 041736Z 0418/0518 22012G22KT P6SM BKN015
     FM042000 22015G25KT P6SM SCT024 BKN250
     FM050400 21010KT P6SM OVC060
     FM051000 01009KT 4SM -RA BR OVC006=



000
FTUS42 KRAH 041736
TAFGSO
TAF
KGSO 041736Z 0418/0518 22014G25KT P6SM SCT015 BKN250
      TEMPO 0418/0420 BKN015
     FM042300 22012KT P6SM SCT020
     FM050700 25005KT 5SM -RA BR OVC016
     FM050900 01010KT 3SM -RA BR OVC006=



000
FTUS42 KRAH 041736
TAFINT
TAF
KINT 041736Z 0418/0518 22014G25KT P6SM SCT015 BKN250
      TEMPO 0418/0420 BKN015
     FM042300 22012KT P6SM SCT020
     FM050700 25005KT 5SM -RA BR OVC016
     FM050900 01010KT 3SM -RA BR OVC006=



000
FTUS42 KRAH 041736
TAFRWI
TAF
KRWI 041736Z 0418/0518 21012KT 6SM BR OVC006
     FM041900 22015G25KT P6SM FEW012 SCT035
     FM042300 21012KT P6SM FEW012
     FM050400 21010KT 3SM BR OVC004
     FM051000 23006KT 3SM -RA BR OVC004
     FM051200 01013KT 4SM -RA BR OVC005=



000
FTUS42 KRAH 041736
TAFRDU
TAF
KRDU 041736Z 0418/0518 22012G22KT P6SM BKN015
     FM042000 22015G25KT P6SM SCT024 BKN250
     FM050400 21010KT P6SM OVC060
     FM051000 01009KT 4SM -RA BR OVC006=



000
FTUS42 KRAH 041736
TAFRWI
TAF
KRWI 041736Z 0418/0518 21012KT 6SM BR OVC006
     FM041900 22015G25KT P6SM FEW012 SCT035
     FM042300 21012KT P6SM FEW012
     FM050400 21010KT 3SM BR OVC004
     FM051000 23006KT 3SM -RA BR OVC004
     FM051200 01013KT 4SM -RA BR OVC005=



000
FTUS42 KRAH 041626 AAE
TAFINT
TAF AMD
KINT 041626Z 0416/0512 23012G22KT P6SM BKN015
      TEMPO 0416/0418 SCT015 BKN035
     FM041900 23015G25KT P6SM BKN025=



000
FTUS42 KRAH 041625 AAD
TAFGSO
TAF AMD
KGSO 041625Z 0416/0512 23016G26KT P6SM SCT010 BKN035
      TEMPO 0416/0418 BKN010
     FM042100 22015G25KT P6SM BKN025=



000
FTUS42 KRAH 041625 AAD
TAFGSO
TAF AMD
KGSO 041625Z 0416/0512 23016G26KT P6SM SCT010 BKN035
      TEMPO 0416/0418 BKN010
     FM042100 22015G25KT P6SM BKN025=



000
FTUS42 KRAH 041623 AAC
TAFRDU
TAF AMD
KRDU 041623Z 0416/0512 23010KT 4SM BR OVC004 WS015/23045KT
     FM041730 22014G26KT 6SM BR BKN010 OVC040
     FM041930 22015G28KT P6SM BKN035=



000
FTUS42 KRAH 041623 AAC
TAFRDU
TAF AMD
KRDU 041623Z 0416/0512 23010KT 4SM BR OVC004 WS015/23045KT
     FM041730 22014G26KT 6SM BR BKN010 OVC040
     FM041930 22015G28KT P6SM BKN035=



000
FTUS42 KRAH 041623 AAC
TAFRDU
TAF AMD
KRDU 041623Z 0416/0512 23010KT 4SM BR OVC004 WS015/23045KT
     FM041730 22014G26KT 6SM BR BKN010 OVC040
     FM041930 22015G28KT P6SM BKN035=



000
FTUS42 KRAH 041621 AAC
TAFFAY
TAF AMD
KFAY 041621Z 0416/0512 22010G20KT P6SM SCT005 BKN060 WS015/23050KT
      TEMPO 0416/0418 BKN005
     FM041800 22015G28KT P6SM BKN050=



000
FTUS42 KRAH 041621 AAC
TAFFAY
TAF AMD
KFAY 041621Z 0416/0512 22010G20KT P6SM SCT005 BKN060 WS015/23050KT
      TEMPO 0416/0418 BKN005
     FM041800 22015G28KT P6SM BKN050=



000
FTUS42 KRAH 041621 AAC
TAFFAY
TAF AMD
KFAY 041621Z 0416/0512 22010G20KT P6SM SCT005 BKN060 WS015/23050KT
      TEMPO 0416/0418 BKN005
     FM041800 22015G28KT P6SM BKN050=



000
FTUS42 KRAH 041621 AAC
TAFFAY
TAF AMD
KFAY 041621Z 0416/0512 22010G20KT P6SM SCT005 BKN060 WS015/23050KT
      TEMPO 0416/0418 BKN005
     FM041800 22015G28KT P6SM BKN050=



000
FTUS42 KRAH 041507 AAC
TAFGSO
TAF AMD
KGSO 041507Z 0415/0512 22013G25KT 4SM BR OVC004 WS015/23050KT
     FM041630 23016G26KT 6SM BR OVC008
     FM042100 22015G25KT P6SM BKN025=



000
FTUS42 KRAH 041506 AAC
TAFRWI
TAF AMD
KRWI 041506Z 0415/0512 21010G18KT 1 1/2SM BR OVC003 WS015/23050KT
     FM041630 22012G20KT 4SM BR BKN007 OVC012 WS015/23045KT
     FM041800 22012G22KT P6SM BKN025
     FM042000 22015G25KT P6SM SCT040=



000
FTUS42 KRAH 041506 AAC
TAFRWI
TAF AMD
KRWI 041506Z 0415/0512 21010G18KT 1 1/2SM BR OVC003 WS015/23050KT
     FM041630 22012G20KT 4SM BR BKN007 OVC012 WS015/23045KT
     FM041800 22012G22KT P6SM BKN025
     FM042000 22015G25KT P6SM SCT040=



000
FTUS42 KRAH 041506 AAB
TAFRDU
TAF AMD
KRDU 041506Z 0415/0512 23009KT 1/2SM FG OVC002 WS015/23050KT
      TEMPO 0415/0416 1/4SM FG VV001
     FM041630 22012G22KT 1SM BR BKN007
     FM041830 22015G25KT P6SM SCT020=



000
FTUS42 KRAH 041506 AAB
TAFRDU
TAF AMD
KRDU 041506Z 0415/0512 23009KT 1/2SM FG OVC002 WS015/23050KT
      TEMPO 0415/0416 1/4SM FG VV001
     FM041630 22012G22KT 1SM BR BKN007
     FM041830 22015G25KT P6SM SCT020=



000
FTUS42 KRAH 041504 AAB
TAFFAY
TAF AMD
KFAY 041504Z 0415/0512 20008KT 1/2SM FG OVC003 WS015/23050KT
      TEMPO 0415/0416 1/4SM FG VV002
     FM041630 22012G22KT 6SM HZ BKN007 OVC012 WS015/24045KT
     FM041900 22018G28KT P6SM SCT040=



000
FTUS42 KRAH 041504 AAB
TAFFAY
TAF AMD
KFAY 041504Z 0415/0512 20008KT 1/2SM FG OVC003 WS015/23050KT
      TEMPO 0415/0416 1/4SM FG VV002
     FM041630 22012G22KT 6SM HZ BKN007 OVC012 WS015/24045KT
     FM041900 22018G28KT P6SM SCT040=



000
FTUS42 KRAH 041504 AAB
TAFFAY
TAF AMD
KFAY 041504Z 0415/0512 20008KT 1/2SM FG OVC003 WS015/23050KT
      TEMPO 0415/0416 1/4SM FG VV002
     FM041630 22012G22KT 6SM HZ BKN007 OVC012 WS015/24045KT
     FM041900 22018G28KT P6SM SCT040=



000
FTUS42 KRAH 041504 AAB
TAFFAY
TAF AMD
KFAY 041504Z 0415/0512 20008KT 1/2SM FG OVC003 WS015/23050KT
      TEMPO 0415/0416 1/4SM FG VV002
     FM041630 22012G22KT 6SM HZ BKN007 OVC012 WS015/24045KT
     FM041900 22018G28KT P6SM SCT040=



000
FTUS42 KRAH 041440 AAD
TAFINT
TAF AMD
KINT 041440Z 0415/0512 22010G18KT 6SM BR OVC005 WS015/24050KT
      TEMPO 0415/0416 3SM BR
     FM041600 23012G22KT 6SM BR BKN010
     FM041900 23015G25KT P6SM BKN025=



000
FTUS42 KRAH 041440 AAD
TAFINT
TAF AMD
KINT 041440Z 0415/0512 22010G18KT 6SM BR OVC005 WS015/24050KT
      TEMPO 0415/0416 3SM BR
     FM041600 23012G22KT 6SM BR BKN010
     FM041900 23015G25KT P6SM BKN025=



000
FTUS42 KRAH 041439 AAB
TAFGSO
TAF AMD
KGSO 041439Z 0415/0512 22013G25KT 2SM BR OVC002 WS015/23050KT
     FM041600 23016G26KT 3SM BR OVC008
     FM042100 22015G25KT P6SM BKN025=



000
FTUS42 KRAH 041439 AAB
TAFGSO
TAF AMD
KGSO 041439Z 0415/0512 22013G25KT 2SM BR OVC002 WS015/23050KT
     FM041600 23016G26KT 3SM BR OVC008
     FM042100 22015G25KT P6SM BKN025=



000
FTUS42 KRAH 041439 AAB
TAFGSO
TAF AMD
KGSO 041439Z 0415/0512 22013G25KT 2SM BR OVC002 WS015/23050KT
     FM041600 23016G26KT 3SM BR OVC008
     FM042100 22015G25KT P6SM BKN025=



000
FTUS42 KRAH 041439 AAB
TAFGSO
TAF AMD
KGSO 041439Z 0415/0512 22013G25KT 2SM BR OVC002 WS015/23050KT
     FM041600 23016G26KT 3SM BR OVC008
     FM042100 22015G25KT P6SM BKN025=



000
FTUS42 KRAH 041418 AAB
TAFRWI
TAF AMD
KRWI 041418Z 0414/0512 21010KT 1/2SM FG OVC002 WS015/23050KT
      TEMPO 0414/0415 1/4SM FG VV001
     FM041500 23005KT 4SM BR BKN007 OVC012 WS015/23045KT
     FM041700 22012G22KT P6SM BKN025
     FM041900 22015G25KT P6SM SCT040=



000
FTUS42 KRAH 041418 AAB
TAFRWI
TAF AMD
KRWI 041418Z 0414/0512 21010KT 1/2SM FG OVC002 WS015/23050KT
      TEMPO 0414/0415 1/4SM FG VV001
     FM041500 23005KT 4SM BR BKN007 OVC012 WS015/23045KT
     FM041700 22012G22KT P6SM BKN025
     FM041900 22015G25KT P6SM SCT040=



000
FTUS42 KRAH 041418 AAB
TAFRWI
TAF AMD
KRWI 041418Z 0414/0512 21010KT 1/2SM FG OVC002 WS015/23050KT
      TEMPO 0414/0415 1/4SM FG VV001
     FM041500 23005KT 4SM BR BKN007 OVC012 WS015/23045KT
     FM041700 22012G22KT P6SM BKN025
     FM041900 22015G25KT P6SM SCT040=



000
FTUS42 KRAH 041418 AAC
TAFINT
TAF AMD
KINT 041418Z 0414/0512 22010G18KT 3SM BR OVC002 WS015/24050KT
      TEMPO 0414/0415 1SM BR VV001
     FM041600 23012G22KT 6SM BR BKN010
     FM041900 23015G25KT P6SM BKN025=



000
FTUS42 KRAH 041418 AAC
TAFINT
TAF AMD
KINT 041418Z 0414/0512 22010G18KT 3SM BR OVC002 WS015/24050KT
      TEMPO 0414/0415 1SM BR VV001
     FM041600 23012G22KT 6SM BR BKN010
     FM041900 23015G25KT P6SM BKN025=



000
FTUS42 KRAH 041418 AAC
TAFINT
TAF AMD
KINT 041418Z 0414/0512 22010G18KT 3SM BR OVC002 WS015/24050KT
      TEMPO 0414/0415 1SM BR VV001
     FM041600 23012G22KT 6SM BR BKN010
     FM041900 23015G25KT P6SM BKN025=



000
FTUS42 KRAH 041418 AAB
TAFRWI
TAF AMD
KRWI 041418Z 0414/0512 21010KT 1/2SM FG OVC002 WS015/23050KT
      TEMPO 0414/0415 1/4SM FG VV001
     FM041500 23005KT 4SM BR BKN007 OVC012 WS015/23045KT
     FM041700 22012G22KT P6SM BKN025
     FM041900 22015G25KT P6SM SCT040=



000
FTUS42 KRAH 041325 AAB
TAFINT
TAF AMD
KINT 041325Z 0413/0512 22010G18KT 1SM BR OVC002 WS015/24050KT
      TEMPO 0413/0415 1/2SM FG VV001
     FM041600 23012G22KT 6SM BR BKN010
     FM041900 23015G25KT P6SM BKN025=



000
FTUS42 KRAH 041325 AAB
TAFINT
TAF AMD
KINT 041325Z 0413/0512 22010G18KT 1SM BR OVC002 WS015/24050KT
      TEMPO 0413/0415 1/2SM FG VV001
     FM041600 23012G22KT 6SM BR BKN010
     FM041900 23015G25KT P6SM BKN025=



000
FTUS42 KRAH 041245 AAA
TAFRWI
TAF AMD
KRWI 041245Z 0413/0512 21006KT 1/2SM FG OVC002 WS015/23050KT
      TEMPO 0413/0415 1/4SM FG VV001
     FM041500 23005KT 4SM BR BKN007 OVC012 WS015/23045KT
     FM041700 22012G22KT P6SM BKN025
     FM041900 22015G25KT P6SM SCT040=



000
FTUS42 KRAH 041245 AAA
TAFRWI
TAF AMD
KRWI 041245Z 0413/0512 21006KT 1/2SM FG OVC002 WS015/23050KT
      TEMPO 0413/0415 1/4SM FG VV001
     FM041500 23005KT 4SM BR BKN007 OVC012 WS015/23045KT
     FM041700 22012G22KT P6SM BKN025
     FM041900 22015G25KT P6SM SCT040=



000
FTUS42 KRAH 041245 AAA
TAFFAY
TAF AMD
KFAY 041245Z 0413/0512 20008KT 1/2SM FG OVC003 WS015/23050KT
      TEMPO 0413/0415 1/4SM FG VV002
     FM041500 22012G22KT 6SM HZ BKN007 OVC012 WS015/24045KT
     FM041600 22015G25KT P6SM BKN015
     FM041800 22018G28KT P6SM SCT040=



000
FTUS42 KRAH 041245 AAA
TAFFAY
TAF AMD
KFAY 041245Z 0413/0512 20008KT 1/2SM FG OVC003 WS015/23050KT
      TEMPO 0413/0415 1/4SM FG VV002
     FM041500 22012G22KT 6SM HZ BKN007 OVC012 WS015/24045KT
     FM041600 22015G25KT P6SM BKN015
     FM041800 22018G28KT P6SM SCT040=



000
FTUS42 KRAH 041244 AAA
TAFRDU
TAF AMD
KRDU 041244Z 0413/0512 23009KT 1/2SM FG OVC002 WS015/23050KT
      TEMPO 0413/0415 1/4SM FG VV001
     FM041500 22012G22KT 1SM BR BKN007
     FM041700 22015G25KT P6SM SCT020=



000
FTUS42 KRAH 041244 AAA
TAFGSO
TAF AMD
KGSO 041244Z 0413/0512 22010KT 1/2SM -DZ FG OVC002 WS015/23050KT
      TEMPO 0413/0415 1/4SM FG VV002
     FM041600 23012G22KT 3SM BR OVC008
     FM042100 22015G25KT P6SM BKN025=



000
FTUS42 KRAH 041244 AAA
TAFRDU
TAF AMD
KRDU 041244Z 0413/0512 23009KT 1/2SM FG OVC002 WS015/23050KT
      TEMPO 0413/0415 1/4SM FG VV001
     FM041500 22012G22KT 1SM BR BKN007
     FM041700 22015G25KT P6SM SCT020=



000
FTUS42 KRAH 041243 AAA
TAFINT
TAF AMD
KINT 041243Z 0413/0512 21006KT 1/2SM FG OVC002 WS015/24050KT
      TEMPO 0413/0415 1/4SM FG VV001
     FM041600 23012G22KT 6SM BR BKN010
     FM041900 23015G25KT P6SM BKN025=



000
FTUS42 KRAH 041120
TAFINT
TAF
KINT 041120Z 0412/0512 21006KT 1/2SM FG OVC002 WS015/23045KT
      TEMPO 0412/0415 1/4SM FG VV001
     FM041600 23012G22KT 6SM BR BKN010
     FM041900 23015G25KT P6SM BKN025=



000
FTUS42 KRAH 041120
TAFRWI
TAF
KRWI 041120Z 0412/0512 21006KT 1/2SM FG OVC002 WS015/23045KT
      TEMPO 0412/0415 1/4SM FG VV001
     FM041600 23005KT 4SM BR BKN007 OVC012 WS015/23045KT
     FM041700 22012G22KT P6SM BKN025
     FM041900 22015G25KT P6SM SCT040=



000
FTUS42 KRAH 041120
TAFRDU
TAF
KRDU 041120Z 0412/0512 23009KT 1/2SM FG OVC002 WS015/23045KT
      TEMPO 0412/0415 1/4SM FG VV001
     FM041500 22012G22KT 1SM BR BKN007
     FM041700 22015G25KT P6SM SCT020=



000
FTUS42 KRAH 041120
TAFINT
TAF
KINT 041120Z 0412/0512 21006KT 1/2SM FG OVC002 WS015/23045KT
      TEMPO 0412/0415 1/4SM FG VV001
     FM041600 23012G22KT 6SM BR BKN010
     FM041900 23015G25KT P6SM BKN025=



000
FTUS42 KRAH 041120
TAFGSO
TAF
KGSO 041120Z 0412/0512 22010KT 1/2SM -DZ FG OVC002 WS015/23045KT
      TEMPO 0412/0415 1/4SM FG VV002
     FM041700 23012G22KT 3SM BR OVC008
     FM042100 22015G25KT P6SM BKN025=



000
FTUS42 KRAH 041120
TAFFAY
TAF
KFAY 041120Z 0412/0512 20008KT 1/2SM FG OVC003 WS015/23045KT
      TEMPO 0412/0415 1/4SM FG VV002
     FM041500 22012G22KT 6SM HZ BKN007 OVC012 WS015/24045KT
     FM041600 22015G25KT P6SM BKN015
     FM041800 22018G28KT P6SM SCT040=



000
FTUS42 KRAH 041120
TAFRDU
TAF
KRDU 041120Z 0412/0512 23009KT 1/2SM FG OVC002 WS015/23045KT
      TEMPO 0412/0415 1/4SM FG VV001
     FM041500 22012G22KT 1SM BR BKN007
     FM041700 22015G25KT P6SM SCT020=



000
FTUS42 KRAH 041120
TAFRWI
TAF
KRWI 041120Z 0412/0512 21006KT 1/2SM FG OVC002 WS015/23045KT
      TEMPO 0412/0415 1/4SM FG VV001
     FM041600 23005KT 4SM BR BKN007 OVC012 WS015/23045KT
     FM041700 22012G22KT P6SM BKN025
     FM041900 22015G25KT P6SM SCT040=



000
FTUS42 KRAH 041120
TAFFAY
TAF
KFAY 041120Z 0412/0512 20008KT 1/2SM FG OVC003 WS015/23045KT
      TEMPO 0412/0415 1/4SM FG VV002
     FM041500 22012G22KT 6SM HZ BKN007 OVC012 WS015/24045KT
     FM041600 22015G25KT P6SM BKN015
     FM041800 22018G28KT P6SM SCT040=



000
FTUS42 KRAH 041120
TAFGSO
TAF
KGSO 041120Z 0412/0512 22010KT 1/2SM -DZ FG OVC002 WS015/23045KT
      TEMPO 0412/0415 1/4SM FG VV002
     FM041700 23012G22KT 3SM BR OVC008
     FM042100 22015G25KT P6SM BKN025=



000
FTUS42 KRAH 041120
TAFGSO
TAF
KGSO 041120Z 0412/0512 22010KT 1/2SM -DZ FG OVC002 WS015/23045KT
      TEMPO 0412/0415 1/4SM FG VV002
     FM041700 23012G22KT 3SM BR OVC008
     FM042100 22015G25KT P6SM BKN025=



000
FTUS42 KRAH 040945 AAA
TAFINT
TAF AMD
KINT 040945Z 0410/0506 21006KT 1/2SM FG OVC002 WS015/23045KT
      TEMPO 0411/0414 1/4SM FG VV001
     FM041600 23012G22KT 6SM BR BKN010
     FM041900 23015G25KT P6SM BKN025=



000
FTUS42 KRAH 040945 AAA
TAFINT
TAF AMD
KINT 040945Z 0410/0506 21006KT 1/2SM FG OVC002 WS015/23045KT
      TEMPO 0411/0414 1/4SM FG VV001
     FM041600 23012G22KT 6SM BR BKN010
     FM041900 23015G25KT P6SM BKN025=



000
FTUS42 KRAH 040944 AAA
TAFRWI
TAF AMD
KRWI 040944Z 0410/0506 21006KT 1/2SM FG OVC002 WS015/23045KT
      TEMPO 0410/0413 1/4SM FG VV001
     FM041500 23005KT 4SM BR BKN007 OVC012 WS015/23045KT
     FM041600 22012G22KT P6SM BKN025
     FM041900 22015G25KT P6SM SCT040=



000
FTUS42 KRAH 040944 AAA
TAFRWI
TAF AMD
KRWI 040944Z 0410/0506 21006KT 1/2SM FG OVC002 WS015/23045KT
      TEMPO 0410/0413 1/4SM FG VV001
     FM041500 23005KT 4SM BR BKN007 OVC012 WS015/23045KT
     FM041600 22012G22KT P6SM BKN025
     FM041900 22015G25KT P6SM SCT040=



000
FTUS42 KRAH 040943 AAA
TAFFAY
TAF AMD
KFAY 040943Z 0410/0506 20008KT 1/2SM FG OVC003 WS015/23045KT
      TEMPO 0410/0413 1/4SM FG VV002
     FM041500 22012G22KT 6SM HZ BKN007 OVC012 WS015/24045KT
     FM041600 22015G25KT P6SM BKN015
     FM041800 22018G28KT P6SM SCT040=



000
FTUS42 KRAH 040943 AAA
TAFFAY
TAF AMD
KFAY 040943Z 0410/0506 20008KT 1/2SM FG OVC003 WS015/23045KT
      TEMPO 0410/0413 1/4SM FG VV002
     FM041500 22012G22KT 6SM HZ BKN007 OVC012 WS015/24045KT
     FM041600 22015G25KT P6SM BKN015
     FM041800 22018G28KT P6SM SCT040=



000
FTUS42 KRAH 040942 AAA
TAFRDU
TAF AMD
KRDU 040942Z 0410/0506 23009KT 1/2SM FG OVC002 WS015/23045KT
      TEMPO 0410/0413 1/4SM FG VV001
     FM041500 22012G22KT 1SM BR BKN007
     FM041700 22015G25KT P6SM SCT020=



000
FTUS42 KRAH 040942 AAA
TAFRDU
TAF AMD
KRDU 040942Z 0410/0506 23009KT 1/2SM FG OVC002 WS015/23045KT
      TEMPO 0410/0413 1/4SM FG VV001
     FM041500 22012G22KT 1SM BR BKN007
     FM041700 22015G25KT P6SM SCT020=



000
FTUS42 KRAH 040941 AAA
TAFGSO
TAF AMD
KGSO 040941Z 0410/0506 22010KT 1/2SM -DZ FG OVC002 WS015/23045KT
      TEMPO 0410/0413 1/4SM FG VV002
     FM041300 23011KT 1/2SM FG OVC002 WS015/23045KT
      TEMPO 0413/0415 1/4SM FG VV001
     FM041700 23012G22KT 3SM BR OVC008
     FM042100 22015G25KT P6SM BKN025=



000
FTUS42 KRAH 040524
TAFRWI
TAF
KRWI 040524Z 0406/0506 VRB03KT 3SM BR OVC004 WS015/23045KT
      TEMPO 0406/0408 3/4SM BR OVC002
     FM040800 VRB03KT 1/4SM FG VV001 WS015/23045KT
     FM041500 23005KT 4SM BR BKN007 OVC012 WS015/23045KT
     FM041600 22012G22KT P6SM BKN025
     FM041900 22015G25KT P6SM SCT040=



000
FTUS42 KRAH 040524
TAFFAY
TAF
KFAY 040524Z 0406/0506 VRB03KT 3SM BR OVC003
      TEMPO 0406/0409 3/4SM BR VV002
     FM040900 VRB03KT 1/4SM FG VV001 WS015/23045KT
     FM041500 22012G22KT 6SM HZ BKN007 OVC012 WS015/24045KT
     FM041600 22015G25KT P6SM BKN015
     FM041800 22018G28KT P6SM SCT040=



000
FTUS42 KRAH 040524
TAFGSO
TAF
KGSO 040524Z 0406/0506 23008KT 3SM -DZ BR OVC004 WS015/23045KT
      TEMPO 0406/0409 1 1/2SM -RA
     FM040900 23008KT 1/2SM FG OVC002 WS015/23045KT
      TEMPO 0411/0415 1/4SM FG VV001
     FM041700 23012G22KT 3SM BR OVC008
     FM042100 22015G25KT P6SM BKN025=



000
FTUS42 KRAH 040524
TAFGSO
TAF
KGSO 040524Z 0406/0506 23008KT 3SM -DZ BR OVC004 WS015/23045KT
      TEMPO 0406/0409 1 1/2SM -RA
     FM040900 23008KT 1/2SM FG OVC002 WS015/23045KT
      TEMPO 0411/0415 1/4SM FG VV001
     FM041700 23012G22KT 3SM BR OVC008
     FM042100 22015G25KT P6SM BKN025=



000
FTUS42 KRAH 040524
TAFRDU
TAF
KRDU 040524Z 0406/0506 23008KT 2SM -DZ BR OVC003 WS015/23045KT
     FM040900 23008KT 1/2SM FG OVC002 WS015/23045KT
      TEMPO 0411/0415 1/4SM FG VV001
     FM041500 22012G22KT 6SM BR BKN007
     FM041800 22015G25KT P6SM SCT020=



000
FTUS42 KRAH 040524
TAFRDU
TAF
KRDU 040524Z 0406/0506 23008KT 2SM -DZ BR OVC003 WS015/23045KT
     FM040900 23008KT 1/2SM FG OVC002 WS015/23045KT
      TEMPO 0411/0415 1/4SM FG VV001
     FM041500 22012G22KT 6SM BR BKN007
     FM041800 22015G25KT P6SM SCT020=



000
FTUS42 KRAH 040524
TAFINT
TAF
KINT 040524Z 0406/0506 22005KT 3SM -DZ BR OVC003 WS015/23045KT
      TEMPO 0406/0409 1 1/2SM -RA
     FM040900 VRB03KT 1/2SM FG OVC002 WS015/23045KT
      TEMPO 0411/0415 1/4SM FG VV001
     FM041600 23012G22KT 6SM BR BKN010
     FM041900 23015G25KT P6SM BKN025=



000
FTUS42 KRAH 040524
TAFINT
TAF
KINT 040524Z 0406/0506 22005KT 3SM -DZ BR OVC003 WS015/23045KT
      TEMPO 0406/0409 1 1/2SM -RA
     FM040900 VRB03KT 1/2SM FG OVC002 WS015/23045KT
      TEMPO 0411/0415 1/4SM FG VV001
     FM041600 23012G22KT 6SM BR BKN010
     FM041900 23015G25KT P6SM BKN025=



000
FTUS42 KRAH 040524
TAFGSO
TAF
KGSO 040524Z 0406/0506 23008KT 3SM -DZ BR OVC004 WS015/23045KT
      TEMPO 0406/0409 1 1/2SM -RA
     FM040900 23008KT 1/2SM FG OVC002 WS015/23045KT
      TEMPO 0411/0415 1/4SM FG VV001
     FM041700 23012G22KT 3SM BR OVC008
     FM042100 22015G25KT P6SM BKN025=



000
FTUS42 KRAH 040524
TAFINT
TAF
KINT 040524Z 0406/0506 22005KT 3SM -DZ BR OVC003 WS015/23045KT
      TEMPO 0406/0409 1 1/2SM -RA
     FM040900 VRB03KT 1/2SM FG OVC002 WS015/23045KT
      TEMPO 0411/0415 1/4SM FG VV001
     FM041600 23012G22KT 6SM BR BKN010
     FM041900 23015G25KT P6SM BKN025=



000
FTUS42 KRAH 040524
TAFRWI
TAF
KRWI 040524Z 0406/0506 VRB03KT 3SM BR OVC004 WS015/23045KT
      TEMPO 0406/0408 3/4SM BR OVC002
     FM040800 VRB03KT 1/4SM FG VV001 WS015/23045KT
     FM041500 23005KT 4SM BR BKN007 OVC012 WS015/23045KT
     FM041600 22012G22KT P6SM BKN025
     FM041900 22015G25KT P6SM SCT040=



000
FTUS42 KRAH 040524
TAFINT
TAF
KINT 040524Z 0406/0506 22005KT 3SM -DZ BR OVC003 WS015/23045KT
      TEMPO 0406/0409 1 1/2SM -RA
     FM040900 VRB03KT 1/2SM FG OVC002 WS015/23045KT
      TEMPO 0411/0415 1/4SM FG VV001
     FM041600 23012G22KT 6SM BR BKN010
     FM041900 23015G25KT P6SM BKN025=



000
FTUS42 KRAH 040524
TAFRDU
TAF
KRDU 040524Z 0406/0506 23008KT 2SM -DZ BR OVC003 WS015/23045KT
     FM040900 23008KT 1/2SM FG OVC002 WS015/23045KT
      TEMPO 0411/0415 1/4SM FG VV001
     FM041500 22012G22KT 6SM BR BKN007
     FM041800 22015G25KT P6SM SCT020=



000
FTUS42 KRAH 040524
TAFRDU
TAF
KRDU 040524Z 0406/0506 23008KT 2SM -DZ BR OVC003 WS015/23045KT
     FM040900 23008KT 1/2SM FG OVC002 WS015/23045KT
      TEMPO 0411/0415 1/4SM FG VV001
     FM041500 22012G22KT 6SM BR BKN007
     FM041800 22015G25KT P6SM SCT020=



000
FTUS42 KRAH 040524
TAFRWI
TAF
KRWI 040524Z 0406/0506 VRB03KT 3SM BR OVC004 WS015/23045KT
      TEMPO 0406/0408 3/4SM BR OVC002
     FM040800 VRB03KT 1/4SM FG VV001 WS015/23045KT
     FM041500 23005KT 4SM BR BKN007 OVC012 WS015/23045KT
     FM041600 22012G22KT P6SM BKN025
     FM041900 22015G25KT P6SM SCT040=



000
FTUS42 KRAH 040524
TAFGSO
TAF
KGSO 040524Z 0406/0506 23008KT 3SM -DZ BR OVC004 WS015/23045KT
      TEMPO 0406/0409 1 1/2SM -RA
     FM040900 23008KT 1/2SM FG OVC002 WS015/23045KT
      TEMPO 0411/0415 1/4SM FG VV001
     FM041700 23012G22KT 3SM BR OVC008
     FM042100 22015G25KT P6SM BKN025=



000
FTUS42 KRAH 040524
TAFFAY
TAF
KFAY 040524Z 0406/0506 VRB03KT 3SM BR OVC003
      TEMPO 0406/0409 3/4SM BR VV002
     FM040900 VRB03KT 1/4SM FG VV001 WS015/23045KT
     FM041500 22012G22KT 6SM HZ BKN007 OVC012 WS015/24045KT
     FM041600 22015G25KT P6SM BKN015
     FM041800 22018G28KT P6SM SCT040=



000
FTUS42 KRAH 040524
TAFFAY
TAF
KFAY 040524Z 0406/0506 VRB03KT 3SM BR OVC003
      TEMPO 0406/0409 3/4SM BR VV002
     FM040900 VRB03KT 1/4SM FG VV001 WS015/23045KT
     FM041500 22012G22KT 6SM HZ BKN007 OVC012 WS015/24045KT
     FM041600 22015G25KT P6SM BKN015
     FM041800 22018G28KT P6SM SCT040=



000
FTUS42 KRAH 040309 AAB
TAFRDU
TAF AMD
KRDU 040309Z 0403/0424 23003KT 2SM -DZ BR BKN004 OVC010
      WS015/23045KT
     FM040800 VRB03KT 1/2SM FG OVC002 WS015/23045KT
      TEMPO 0411/0415 1/4SM FG VV001
     FM041600 22009KT 4SM BR BKN007 OVC012 WS015/23045KT
     FM041700 22011KT 6SM BR BKN015
     FM041830 22012G22KT P6SM SCT018=



000
FTUS42 KRAH 040307 AAC
TAFGSO
TAF AMD
KGSO 040307Z 0403/0424 22005KT 1 1/2SM -DZ BR OVC004 WS015/23045KT
      TEMPO 0403/0405 3SM -RA
     FM040700 VRB03KT 1/2SM FG OVC002 WS015/23045KT
      TEMPO 0411/0415 1/4SM FG VV001
     FM041700 23008KT 3SM BR OVC008
     FM042100 22010KT 6SM BR BKN018=



000
FTUS42 KRAH 040307 AAC
TAFINT
TAF AMD
KINT 040307Z 0403/0424 22005KT 1 1/2SM -DZ BR OVC004 WS015/23045KT
      TEMPO 0403/0405 3SM -RA
     FM040700 VRB03KT 1/2SM FG OVC002 WS015/23045KT
      TEMPO 0411/0415 1/4SM FG VV001
     FM041700 23008KT 3SM BR OVC008
     FM042100 22010KT 6SM BR BKN018=



000
FTUS42 KRAH 040307 AAC
TAFGSO
TAF AMD
KGSO 040307Z 0403/0424 22005KT 1 1/2SM -DZ BR OVC004 WS015/23045KT
      TEMPO 0403/0405 3SM -RA
     FM040700 VRB03KT 1/2SM FG OVC002 WS015/23045KT
      TEMPO 0411/0415 1/4SM FG VV001
     FM041700 23008KT 3SM BR OVC008
     FM042100 22010KT 6SM BR BKN018=



000
FTUS42 KRAH 040307 AAC
TAFGSO
TAF AMD
KGSO 040307Z 0403/0424 22005KT 1 1/2SM -DZ BR OVC004 WS015/23045KT
      TEMPO 0403/0405 3SM -RA
     FM040700 VRB03KT 1/2SM FG OVC002 WS015/23045KT
      TEMPO 0411/0415 1/4SM FG VV001
     FM041700 23008KT 3SM BR OVC008
     FM042100 22010KT 6SM BR BKN018=



000
FTUS42 KRAH 040307 AAC
TAFINT
TAF AMD
KINT 040307Z 0403/0424 22005KT 1 1/2SM -DZ BR OVC004 WS015/23045KT
      TEMPO 0403/0405 3SM -RA
     FM040700 VRB03KT 1/2SM FG OVC002 WS015/23045KT
      TEMPO 0411/0415 1/4SM FG VV001
     FM041700 23008KT 3SM BR OVC008
     FM042100 22010KT 6SM BR BKN018=



000
FTUS42 KRAH 040307 AAC
TAFINT
TAF AMD
KINT 040307Z 0403/0424 22005KT 1 1/2SM -DZ BR OVC004 WS015/23045KT
      TEMPO 0403/0405 3SM -RA
     FM040700 VRB03KT 1/2SM FG OVC002 WS015/23045KT
      TEMPO 0411/0415 1/4SM FG VV001
     FM041700 23008KT 3SM BR OVC008
     FM042100 22010KT 6SM BR BKN018=



000
FTUS42 KRAH 040305 AAA
TAFRWI
TAF AMD
KRWI 040305Z 0403/0424 VRB03KT 3SM BR OVC004 WS015/23045KT
      TEMPO 0406/0408 3/4SM BR OVC002
     FM040800 VRB03KT 1/4SM FG VV001 WS015/23045KT
     FM041500 23005KT 4SM BR BKN007 OVC012 WS015/23045KT
     FM041600 22010KT 6SM BR BKN015
     FM041830 22010G22KT P6SM SCT018=



000
FTUS42 KRAH 040305 AAA
TAFRWI
TAF AMD
KRWI 040305Z 0403/0424 VRB03KT 3SM BR OVC004 WS015/23045KT
      TEMPO 0406/0408 3/4SM BR OVC002
     FM040800 VRB03KT 1/4SM FG VV001 WS015/23045KT
     FM041500 23005KT 4SM BR BKN007 OVC012 WS015/23045KT
     FM041600 22010KT 6SM BR BKN015
     FM041830 22010G22KT P6SM SCT018=



000
FTUS42 KRAH 040305 AAA
TAFRWI
TAF AMD
KRWI 040305Z 0403/0424 VRB03KT 3SM BR OVC004 WS015/23045KT
      TEMPO 0406/0408 3/4SM BR OVC002
     FM040800 VRB03KT 1/4SM FG VV001 WS015/23045KT
     FM041500 23005KT 4SM BR BKN007 OVC012 WS015/23045KT
     FM041600 22010KT 6SM BR BKN015
     FM041830 22010G22KT P6SM SCT018=



000
FTUS42 KRAH 040305 AAA
TAFRWI
TAF AMD
KRWI 040305Z 0403/0424 VRB03KT 3SM BR OVC004 WS015/23045KT
      TEMPO 0406/0408 3/4SM BR OVC002
     FM040800 VRB03KT 1/4SM FG VV001 WS015/23045KT
     FM041500 23005KT 4SM BR BKN007 OVC012 WS015/23045KT
     FM041600 22010KT 6SM BR BKN015
     FM041830 22010G22KT P6SM SCT018=



000
FTUS42 KRAH 040300 AAB
TAFINT
TAF AMD
KINT 040300Z 0403/0424 22005KT 1 1/2SM -DZ BR OVC004
      TEMPO 0403/0405 3SM -RA
     FM040500 VRB03KT 1/2SM FG VV002 WS015/23045KT
      TEMPO 0411/0415 1/4SM FG VV001
     FM041700 23008KT 3SM BR OVC008
     FM042100 22010KT 6SM BR BKN018=



000
FTUS42 KRAH 040300 AAB
TAFINT
TAF AMD
KINT 040300Z 0403/0424 22005KT 1 1/2SM -DZ BR OVC004
      TEMPO 0403/0405 3SM -RA
     FM040500 VRB03KT 1/2SM FG VV002 WS015/23045KT
      TEMPO 0411/0415 1/4SM FG VV001
     FM041700 23008KT 3SM BR OVC008
     FM042100 22010KT 6SM BR BKN018=



000
FTUS42 KRAH 040300 AAB
TAFGSO
TAF AMD
KGSO 040300Z 0403/0424 22005KT 1 1/2SM -DZ BR OVC004
      TEMPO 0403/0405 3SM -RA
     FM040500 VRB03KT 1/2SM FG VV002 WS015/23045KT
      TEMPO 0411/0415 1/4SM FG VV001
     FM041700 23008KT 3SM BR OVC008
     FM042100 22010KT 6SM BR BKN018=



000
FTUS42 KRAH 040300 AAB
TAFGSO
TAF AMD
KGSO 040300Z 0403/0424 22005KT 1 1/2SM -DZ BR OVC004
      TEMPO 0403/0405 3SM -RA
     FM040500 VRB03KT 1/2SM FG VV002 WS015/23045KT
      TEMPO 0411/0415 1/4SM FG VV001
     FM041700 23008KT 3SM BR OVC008
     FM042100 22010KT 6SM BR BKN018=



000
FTUS42 KRAH 040300 AAB
TAFINT
TAF AMD
KINT 040300Z 0403/0424 22005KT 1 1/2SM -DZ BR OVC004
      TEMPO 0403/0405 3SM -RA
     FM040500 VRB03KT 1/2SM FG VV002 WS015/23045KT
      TEMPO 0411/0415 1/4SM FG VV001
     FM041700 23008KT 3SM BR OVC008
     FM042100 22010KT 6SM BR BKN018=



000
FTUS42 KRAH 040300 AAB
TAFGSO
TAF AMD
KGSO 040300Z 0403/0424 22005KT 1 1/2SM -DZ BR OVC004
      TEMPO 0403/0405 3SM -RA
     FM040500 VRB03KT 1/2SM FG VV002 WS015/23045KT
      TEMPO 0411/0415 1/4SM FG VV001
     FM041700 23008KT 3SM BR OVC008
     FM042100 22010KT 6SM BR BKN018=



000
FTUS42 KRAH 040200 AAA
TAFRDU
TAF AMD
KRDU 040200Z 0402/0424 23003KT 2SM -DZ BR BKN004 OVC010
     FM040500 VRB03KT 1/2SM FG VV002 WS015/23045KT
      TEMPO 0409/0413 1/4SM FG VV001
     FM041500 22010KT 4SM BR BKN007 OVC012 WS015/23045KT
     FM041700 22010KT 6SM BR BKN015
     FM041830 22010G18KT P6SM SCT018=



000
FTUS42 KRAH 040200 AAA
TAFRDU
TAF AMD
KRDU 040200Z 0402/0424 23003KT 2SM -DZ BR BKN004 OVC010
     FM040500 VRB03KT 1/2SM FG VV002 WS015/23045KT
      TEMPO 0409/0413 1/4SM FG VV001
     FM041500 22010KT 4SM BR BKN007 OVC012 WS015/23045KT
     FM041700 22010KT 6SM BR BKN015
     FM041830 22010G18KT P6SM SCT018=



000
FTUS42 KRAH 040117 AAA
TAFINT
TAF AMD
KINT 040117Z 0401/0424 VRB03KT 5SM -RA BR OVC007
      TEMPO 0401/0405 2SM -DZ OVC003
     FM040500 VRB03KT 1/2SM FG VV002 WS015/23045KT
      TEMPO 0411/0415 1/4SM FG VV001
     FM041700 23008KT 3SM BR OVC008
     FM042100 22010KT 6SM BR BKN018=



000
FTUS42 KRAH 040117 AAA
TAFINT
TAF AMD
KINT 040117Z 0401/0424 VRB03KT 5SM -RA BR OVC007
      TEMPO 0401/0405 2SM -DZ OVC003
     FM040500 VRB03KT 1/2SM FG VV002 WS015/23045KT
      TEMPO 0411/0415 1/4SM FG VV001
     FM041700 23008KT 3SM BR OVC008
     FM042100 22010KT 6SM BR BKN018=



000
FTUS42 KRAH 040117 AAA
TAFGSO
TAF AMD
KGSO 040117Z 0401/0424 VRB03KT 2SM -DZ BR OVC003
      TEMPO 0401/0405 5SM -RA OVC007
     FM040500 VRB03KT 1/2SM FG VV002 WS015/23045KT
      TEMPO 0411/0415 1/4SM FG VV001
     FM041700 23008KT 3SM BR OVC008
     FM042100 22010KT 6SM BR BKN018=



000
FTUS42 KRAH 040117 AAA
TAFGSO
TAF AMD
KGSO 040117Z 0401/0424 VRB03KT 2SM -DZ BR OVC003
      TEMPO 0401/0405 5SM -RA OVC007
     FM040500 VRB03KT 1/2SM FG VV002 WS015/23045KT
      TEMPO 0411/0415 1/4SM FG VV001
     FM041700 23008KT 3SM BR OVC008
     FM042100 22010KT 6SM BR BKN018=



000
FTUS42 KRAH 032355 CCA
TAFRWI
TAF COR
KRWI 032355Z 0400/0424 VRB03KT 3SM BR OVC005
      TEMPO 0403/0406 3/4SM BR VV002
     FM040600 VRB03KT 1/4SM FG VV001 WS015/23045KT
     FM041400 23005KT 4SM BR BKN007 OVC012 WS015/23045KT
     FM041600 22010KT 6SM BR BKN015
     FM041830 22010G22KT P6SM SCT018=



000
FTUS42 KRAH 032355 CCA
TAFFAY
TAF COR
KFAY 032355Z 0400/0424 VRB03KT 3SM BR OVC003
      TEMPO 0403/0407 3/4SM BR VV002
     FM040700 VRB03KT 1/4SM FG VV001 WS015/23045KT
     FM041400 23005KT 4SM BR BKN007 OVC012 WS015/24045KT
     FM041600 22010KT 6SM BR BKN015
     FM041830 22010G22KT P6SM SCT018=



000
FTUS42 KRAH 032355 CCA
TAFFAY
TAF COR
KFAY 032355Z 0400/0424 VRB03KT 3SM BR OVC003
      TEMPO 0403/0407 3/4SM BR VV002
     FM040700 VRB03KT 1/4SM FG VV001 WS015/23045KT
     FM041400 23005KT 4SM BR BKN007 OVC012 WS015/24045KT
     FM041600 22010KT 6SM BR BKN015
     FM041830 22010G22KT P6SM SCT018=



000
FTUS42 KRAH 032355 CCA
TAFRDU
TAF COR
KRDU 032355Z 0400/0424 VRB03KT 2SM -DZ BR BKN006 OVC012
     FM040200 VRB03KT 1SM BR OVC003
     FM040500 VRB03KT 1/2SM FG VV002 WS015/23045KT
      TEMPO 0409/0413 1/4SM FG VV001
     FM041500 22010KT 4SM BR BKN007 OVC012 WS015/23045KT
     FM041700 22010KT 6SM BR BKN015
     FM041830 22010G18KT P6SM SCT018=



000
FTUS42 KRAH 032355 CCA
TAFFAY
TAF COR
KFAY 032355Z 0400/0424 VRB03KT 3SM BR OVC003
      TEMPO 0403/0407 3/4SM BR VV002
     FM040700 VRB03KT 1/4SM FG VV001 WS015/23045KT
     FM041400 23005KT 4SM BR BKN007 OVC012 WS015/24045KT
     FM041600 22010KT 6SM BR BKN015
     FM041830 22010G22KT P6SM SCT018=



000
FTUS42 KRAH 032355 CCA
TAFRWI
TAF COR
KRWI 032355Z 0400/0424 VRB03KT 3SM BR OVC005
      TEMPO 0403/0406 3/4SM BR VV002
     FM040600 VRB03KT 1/4SM FG VV001 WS015/23045KT
     FM041400 23005KT 4SM BR BKN007 OVC012 WS015/23045KT
     FM041600 22010KT 6SM BR BKN015
     FM041830 22010G22KT P6SM SCT018=



000
FTUS42 KRAH 032355 CCA
TAFRWI
TAF COR
KRWI 032355Z 0400/0424 VRB03KT 3SM BR OVC005
      TEMPO 0403/0406 3/4SM BR VV002
     FM040600 VRB03KT 1/4SM FG VV001 WS015/23045KT
     FM041400 23005KT 4SM BR BKN007 OVC012 WS015/23045KT
     FM041600 22010KT 6SM BR BKN015
     FM041830 22010G22KT P6SM SCT018=



000
FTUS42 KRAH 032355 CCA
TAFRDU
TAF COR
KRDU 032355Z 0400/0424 VRB03KT 2SM -DZ BR BKN006 OVC012
     FM040200 VRB03KT 1SM BR OVC003
     FM040500 VRB03KT 1/2SM FG VV002 WS015/23045KT
      TEMPO 0409/0413 1/4SM FG VV001
     FM041500 22010KT 4SM BR BKN007 OVC012 WS015/23045KT
     FM041700 22010KT 6SM BR BKN015
     FM041830 22010G18KT P6SM SCT018=



000
FTUS42 KRAH 032355 CCA
TAFRDU
TAF COR
KRDU 032355Z 0400/0424 VRB03KT 2SM -DZ BR BKN006 OVC012
     FM040200 VRB03KT 1SM BR OVC003
     FM040500 VRB03KT 1/2SM FG VV002 WS015/23045KT
      TEMPO 0409/0413 1/4SM FG VV001
     FM041500 22010KT 4SM BR BKN007 OVC012 WS015/23045KT
     FM041700 22010KT 6SM BR BKN015
     FM041830 22010G18KT P6SM SCT018=



000
FTUS42 KRAH 032340
TAFINT
TAF
KINT 032340Z 0400/0424 VRB03KT 3SM BR OVC005
     FM040200 VRB03KT 1 1/2SM BR OVC003
     FM040500 VRB03KT 1/2SM FG VV002 WS015/23045KT
      TEMPO 0411/0415 1/4SM FG VV001
     FM041700 23008KT 3SM BR OVC008
     FM042100 22010KT 6SM BR BKN018=



000
FTUS42 KRAH 032340
TAFRWI
TAF
KRWI 032340Z 0400/0424 VRB03KT 3SM BR OVC005
      TEMPO 0403/0407 3/4SM BR VV002
     FM040700 VRB03KT 1/4SM FG VV001
     FM041400 23005KT 4SM BR BKN007 OVC012
     FM041600 22010KT 6SM BR BKN015
     FM041830 22010G22KT P6SM SCT018=



000
FTUS42 KRAH 032340
TAFRDU
TAF
KRDU 032340Z 0400/0424 VRB03KT 2SM -DZ BR BKN006 OVC012
     FM040200 VRB03KT 1SM BR OVC003
     FM040500 VRB03KT 1/2SM FG VV002
      TEMPO 0409/0413 1/4SM FG VV001
     FM041500 22010KT 4SM BR BKN007 OVC012
     FM041700 22010KT 6SM BR BKN015
     FM041830 22010G18KT P6SM SCT018=



000
FTUS42 KRAH 032340
TAFGSO
TAF
KGSO 032340Z 0400/0424 VRB03KT 1 1/2SM -DZ BR OVC005
     FM040200 VRB03KT 1 1/2SM BR OVC003
     FM040500 VRB03KT 1/2SM FG VV002 WS015/23045KT
      TEMPO 0411/0415 1/4SM FG VV001
     FM041700 23008KT 3SM BR OVC008
     FM042100 22010KT 6SM BR BKN018=



000
FTUS42 KRAH 032340
TAFFAY
TAF
KFAY 032340Z 0400/0424 VRB03KT 3SM BR OVC003
      TEMPO 0403/0407 3/4SM BR VV002
     FM040700 VRB03KT 1/4SM FG VV001
     FM041400 23005KT 4SM BR BKN007 OVC012
     FM041600 22010KT 6SM BR BKN015
     FM041830 22010G22KT P6SM SCT018=



000
FTUS42 KRAH 032340
TAFRDU
TAF
KRDU 032340Z 0400/0424 VRB03KT 2SM -DZ BR BKN006 OVC012
     FM040200 VRB03KT 1SM BR OVC003
     FM040500 VRB03KT 1/2SM FG VV002
      TEMPO 0409/0413 1/4SM FG VV001
     FM041500 22010KT 4SM BR BKN007 OVC012
     FM041700 22010KT 6SM BR BKN015
     FM041830 22010G18KT P6SM SCT018=



000
FTUS42 KRAH 032340
TAFGSO
TAF
KGSO 032340Z 0400/0424 VRB03KT 1 1/2SM -DZ BR OVC005
     FM040200 VRB03KT 1 1/2SM BR OVC003
     FM040500 VRB03KT 1/2SM FG VV002 WS015/23045KT
      TEMPO 0411/0415 1/4SM FG VV001
     FM041700 23008KT 3SM BR OVC008
     FM042100 22010KT 6SM BR BKN018=



000
FTUS42 KRAH 032340
TAFRWI
TAF
KRWI 032340Z 0400/0424 VRB03KT 3SM BR OVC005
      TEMPO 0403/0407 3/4SM BR VV002
     FM040700 VRB03KT 1/4SM FG VV001
     FM041400 23005KT 4SM BR BKN007 OVC012
     FM041600 22010KT 6SM BR BKN015
     FM041830 22010G22KT P6SM SCT018=



000
FTUS42 KRAH 032340
TAFINT
TAF
KINT 032340Z 0400/0424 VRB03KT 3SM BR OVC005
     FM040200 VRB03KT 1 1/2SM BR OVC003
     FM040500 VRB03KT 1/2SM FG VV002 WS015/23045KT
      TEMPO 0411/0415 1/4SM FG VV001
     FM041700 23008KT 3SM BR OVC008
     FM042100 22010KT 6SM BR BKN018=



000
FTUS42 KRAH 032340
TAFFAY
TAF
KFAY 032340Z 0400/0424 VRB03KT 3SM BR OVC003
      TEMPO 0403/0407 3/4SM BR VV002
     FM040700 VRB03KT 1/4SM FG VV001
     FM041400 23005KT 4SM BR BKN007 OVC012
     FM041600 22010KT 6SM BR BKN015
     FM041830 22010G22KT P6SM SCT018=



000
FTUS42 KRAH 032340
TAFGSO
TAF
KGSO 032340Z 0400/0424 VRB03KT 1 1/2SM -DZ BR OVC005
     FM040200 VRB03KT 1 1/2SM BR OVC003
     FM040500 VRB03KT 1/2SM FG VV002 WS015/23045KT
      TEMPO 0411/0415 1/4SM FG VV001
     FM041700 23008KT 3SM BR OVC008
     FM042100 22010KT 6SM BR BKN018=



000
FTUS42 KRAH 032340
TAFRWI
TAF
KRWI 032340Z 0400/0424 VRB03KT 3SM BR OVC005
      TEMPO 0403/0407 3/4SM BR VV002
     FM040700 VRB03KT 1/4SM FG VV001
     FM041400 23005KT 4SM BR BKN007 OVC012
     FM041600 22010KT 6SM BR BKN015
     FM041830 22010G22KT P6SM SCT018=



000
FTUS42 KRAH 032340
TAFFAY
TAF
KFAY 032340Z 0400/0424 VRB03KT 3SM BR OVC003
      TEMPO 0403/0407 3/4SM BR VV002
     FM040700 VRB03KT 1/4SM FG VV001
     FM041400 23005KT 4SM BR BKN007 OVC012
     FM041600 22010KT 6SM BR BKN015
     FM041830 22010G22KT P6SM SCT018=



000
FTUS42 KRAH 032340
TAFRDU
TAF
KRDU 032340Z 0400/0424 VRB03KT 2SM -DZ BR BKN006 OVC012
     FM040200 VRB03KT 1SM BR OVC003
     FM040500 VRB03KT 1/2SM FG VV002
      TEMPO 0409/0413 1/4SM FG VV001
     FM041500 22010KT 4SM BR BKN007 OVC012
     FM041700 22010KT 6SM BR BKN015
     FM041830 22010G18KT P6SM SCT018=



000
FTUS42 KRAH 032340
TAFINT
TAF
KINT 032340Z 0400/0424 VRB03KT 3SM BR OVC005
     FM040200 VRB03KT 1 1/2SM BR OVC003
     FM040500 VRB03KT 1/2SM FG VV002 WS015/23045KT
      TEMPO 0411/0415 1/4SM FG VV001
     FM041700 23008KT 3SM BR OVC008
     FM042100 22010KT 6SM BR BKN018=



000
FTUS42 KRAH 032340
TAFFAY
TAF
KFAY 032340Z 0400/0424 VRB03KT 3SM BR OVC003
      TEMPO 0403/0407 3/4SM BR VV002
     FM040700 VRB03KT 1/4SM FG VV001
     FM041400 23005KT 4SM BR BKN007 OVC012
     FM041600 22010KT 6SM BR BKN015
     FM041830 22010G22KT P6SM SCT018=



000
FTUS42 KRAH 032340
TAFRWI
TAF
KRWI 032340Z 0400/0424 VRB03KT 3SM BR OVC005
      TEMPO 0403/0407 3/4SM BR VV002
     FM040700 VRB03KT 1/4SM FG VV001
     FM041400 23005KT 4SM BR BKN007 OVC012
     FM041600 22010KT 6SM BR BKN015
     FM041830 22010G22KT P6SM SCT018=



000
FTUS42 KRAH 032340
TAFINT
TAF
KINT 032340Z 0400/0424 VRB03KT 3SM BR OVC005
     FM040200 VRB03KT 1 1/2SM BR OVC003
     FM040500 VRB03KT 1/2SM FG VV002 WS015/23045KT
      TEMPO 0411/0415 1/4SM FG VV001
     FM041700 23008KT 3SM BR OVC008
     FM042100 22010KT 6SM BR BKN018=



000
FTUS42 KRAH 032340
TAFGSO
TAF
KGSO 032340Z 0400/0424 VRB03KT 1 1/2SM -DZ BR OVC005
     FM040200 VRB03KT 1 1/2SM BR OVC003
     FM040500 VRB03KT 1/2SM FG VV002 WS015/23045KT
      TEMPO 0411/0415 1/4SM FG VV001
     FM041700 23008KT 3SM BR OVC008
     FM042100 22010KT 6SM BR BKN018=



000
FTUS42 KRAH 032340
TAFRDU
TAF
KRDU 032340Z 0400/0424 VRB03KT 2SM -DZ BR BKN006 OVC012
     FM040200 VRB03KT 1SM BR OVC003
     FM040500 VRB03KT 1/2SM FG VV002
      TEMPO 0409/0413 1/4SM FG VV001
     FM041500 22010KT 4SM BR BKN007 OVC012
     FM041700 22010KT 6SM BR BKN015
     FM041830 22010G18KT P6SM SCT018=



000
FTUS42 KRAH 032214 AAB
TAFRWI
TAF AMD
KRWI 032214Z 0322/0418 VRB03KT 2SM BR OVC009
     FM040030 VRB03KT 1 1/2SM BR OVC005
     FM040500 VRB03KT 1/2SM FG VV002
     FM041600 22012G18KT P6SM OVC015=



000
FTUS42 KRAH 032214 AAB
TAFRWI
TAF AMD
KRWI 032214Z 0322/0418 VRB03KT 2SM BR OVC009
     FM040030 VRB03KT 1 1/2SM BR OVC005
     FM040500 VRB03KT 1/2SM FG VV002
     FM041600 22012G18KT P6SM OVC015=



000
FTUS42 KRAH 032214 AAB
TAFRWI
TAF AMD
KRWI 032214Z 0322/0418 VRB03KT 2SM BR OVC009
     FM040030 VRB03KT 1 1/2SM BR OVC005
     FM040500 VRB03KT 1/2SM FG VV002
     FM041600 22012G18KT P6SM OVC015=



000
FTUS42 KRAH 032214 AAB
TAFRWI
TAF AMD
KRWI 032214Z 0322/0418 VRB03KT 2SM BR OVC009
     FM040030 VRB03KT 1 1/2SM BR OVC005
     FM040500 VRB03KT 1/2SM FG VV002
     FM041600 22012G18KT P6SM OVC015=



000
FTUS42 KRAH 032043 AAB
TAFRDU
TAF AMD
KRDU 032043Z 0321/0418 VRB05KT P6SM SCT005 OVC020
      TEMPO 0321/0322 2SM -RA OVC008
     FM032200 05005KT 2SM BR OVC007
     FM040500 VRB03KT 1/2SM FG VV002
     FM041600 22012G18KT P6SM OVC015=



000
FTUS42 KRAH 032043 AAB
TAFRDU
TAF AMD
KRDU 032043Z 0321/0418 VRB05KT P6SM SCT005 OVC020
      TEMPO 0321/0322 2SM -RA OVC008
     FM032200 05005KT 2SM BR OVC007
     FM040500 VRB03KT 1/2SM FG VV002
     FM041600 22012G18KT P6SM OVC015=



000
FTUS42 KRAH 032029 AAA
TAFGSO
TAF AMD
KGSO 032029Z 0320/0418 VRB05KT P6SM OVC020
      TEMPO 0320/0321 2SM -RA OVC008
     FM032100 05005KT 3SM BR OVC007
     FM040500 VRB03KT 1/2SM FG VV002
     FM041700 22010KT 3SM BR OVC008=



000
FTUS42 KRAH 032029 AAA
TAFGSO
TAF AMD
KGSO 032029Z 0320/0418 VRB05KT P6SM OVC020
      TEMPO 0320/0321 2SM -RA OVC008
     FM032100 05005KT 3SM BR OVC007
     FM040500 VRB03KT 1/2SM FG VV002
     FM041700 22010KT 3SM BR OVC008=



000
FTUS42 KRAH 032028 AAA
TAFRDU
TAF AMD
KRDU 032028Z 0320/0418 VRB05KT P6SM SCT005 OVC020
      TEMPO 0320/0324 2SM -RA OVC008
     FM040000 05005KT 3SM BR OVC007
     FM040500 VRB03KT 1/2SM FG VV002
     FM041600 22012G18KT P6SM OVC015=



000
FTUS42 KRAH 032028 AAA
TAFRDU
TAF AMD
KRDU 032028Z 0320/0418 VRB05KT P6SM SCT005 OVC020
      TEMPO 0320/0324 2SM -RA OVC008
     FM040000 05005KT 3SM BR OVC007
     FM040500 VRB03KT 1/2SM FG VV002
     FM041600 22012G18KT P6SM OVC015=



000
FTUS42 KRAH 032028 AAA
TAFRDU
TAF AMD
KRDU 032028Z 0320/0418 VRB05KT P6SM SCT005 OVC020
      TEMPO 0320/0324 2SM -RA OVC008
     FM040000 05005KT 3SM BR OVC007
     FM040500 VRB03KT 1/2SM FG VV002
     FM041600 22012G18KT P6SM OVC015=



000
FTUS42 KRAH 032028 AAA
TAFRDU
TAF AMD
KRDU 032028Z 0320/0418 VRB05KT P6SM SCT005 OVC020
      TEMPO 0320/0324 2SM -RA OVC008
     FM040000 05005KT 3SM BR OVC007
     FM040500 VRB03KT 1/2SM FG VV002
     FM041600 22012G18KT P6SM OVC015=



000
FTUS42 KRAH 032028 AAA
TAFRWI
TAF AMD
KRWI 032028Z 0320/0418 VRB05KT P6SM OVC015
     FM040000 05005KT 3SM BR OVC007
     FM040500 VRB03KT 1/2SM FG VV002
     FM041600 22012G18KT P6SM OVC015=



000
FTUS42 KRAH 032028 AAA
TAFRWI
TAF AMD
KRWI 032028Z 0320/0418 VRB05KT P6SM OVC015
     FM040000 05005KT 3SM BR OVC007
     FM040500 VRB03KT 1/2SM FG VV002
     FM041600 22012G18KT P6SM OVC015=



000
FTUS42 KRAH 032028 AAA
TAFRWI
TAF AMD
KRWI 032028Z 0320/0418 VRB05KT P6SM OVC015
     FM040000 05005KT 3SM BR OVC007
     FM040500 VRB03KT 1/2SM FG VV002
     FM041600 22012G18KT P6SM OVC015=



000
FTUS42 KRAH 032028 AAA
TAFRWI
TAF AMD
KRWI 032028Z 0320/0418 VRB05KT P6SM OVC015
     FM040000 05005KT 3SM BR OVC007
     FM040500 VRB03KT 1/2SM FG VV002
     FM041600 22012G18KT P6SM OVC015=



000
FTUS42 KRAH 031909 AAA
TAFFAY
TAF AMD
KFAY 031909Z 0319/0418 VRB05KT 5SM BR SCT005 OVC015
      TEMPO 0319/0323 2SM -RA OVC005
     FM032300 05005KT 3SM BR OVC007
     FM040500 VRB03KT 1/2SM FG VV002
     FM041500 22012G21KT 4SM BR OVC015=



000
FTUS42 KRAH 031909 AAA
TAFFAY
TAF AMD
KFAY 031909Z 0319/0418 VRB05KT 5SM BR SCT005 OVC015
      TEMPO 0319/0323 2SM -RA OVC005
     FM032300 05005KT 3SM BR OVC007
     FM040500 VRB03KT 1/2SM FG VV002
     FM041500 22012G21KT 4SM BR OVC015=



000
FTUS42 KRAH 031909 AAA
TAFFAY
TAF AMD
KFAY 031909Z 0319/0418 VRB05KT 5SM BR SCT005 OVC015
      TEMPO 0319/0323 2SM -RA OVC005
     FM032300 05005KT 3SM BR OVC007
     FM040500 VRB03KT 1/2SM FG VV002
     FM041500 22012G21KT 4SM BR OVC015=



000
FTUS42 KRAH 031757 AAA
TAFINT
TAF AMD
KINT 031757Z 0318/0418 VRB05KT P6SM OVC020
      TEMPO 0318/0321 1SM -RA OVC008
     FM032100 05005KT 3SM BR OVC007
     FM040500 VRB03KT 1/2SM FG VV002
     FM041700 22010KT 3SM BR OVC008=



000
FTUS42 KRAH 031757 AAA
TAFINT
TAF AMD
KINT 031757Z 0318/0418 VRB05KT P6SM OVC020
      TEMPO 0318/0321 1SM -RA OVC008
     FM032100 05005KT 3SM BR OVC007
     FM040500 VRB03KT 1/2SM FG VV002
     FM041700 22010KT 3SM BR OVC008=



000
FTUS42 KRAH 031735
TAFFAY
TAF
KFAY 031735Z 0318/0418 VRB05KT P6SM OVC020
      TEMPO 0321/0324 3SM -RA OVC008
     FM040000 05005KT 3SM BR OVC007
     FM040500 VRB03KT 1/2SM FG VV002
     FM041500 22012G21KT 4SM BR OVC015=



000
FTUS42 KRAH 031735
TAFRDU
TAF
KRDU 031735Z 0318/0418 VRB05KT P6SM OVC020
      TEMPO 0321/0324 3SM -RA OVC008
     FM040000 05005KT 3SM BR OVC007
     FM040500 VRB03KT 1/2SM FG VV002
     FM041600 22012G18KT P6SM OVC015=



000
FTUS42 KRAH 031735
TAFINT
TAF
KINT 031735Z 0318/0418 VRB05KT P6SM OVC020
      TEMPO 0318/0321 3SM -RA OVC008
     FM032100 05005KT 3SM BR OVC007
     FM040500 VRB03KT 1/2SM FG VV002
     FM041700 22010KT 3SM BR OVC008=



000
FTUS42 KRAH 031735
TAFGSO
TAF
KGSO 031735Z 0318/0418 VRB05KT P6SM OVC020
      TEMPO 0318/0321 3SM -RA OVC008
     FM032100 05005KT 3SM BR OVC007
     FM040500 VRB03KT 1/2SM FG VV002
     FM041700 22010KT 3SM BR OVC008=



000
FTUS42 KRAH 031735
TAFRWI
TAF
KRWI 031735Z 0318/0418 06005KT P6SM OVC040
     FM032200 VRB05KT P6SM OVC025
     FM040000 05005KT 3SM BR OVC007
     FM040500 VRB03KT 1/2SM FG VV002
     FM041600 22012G18KT P6SM OVC015=



000
FTUS42 KRAH 031735
TAFRWI
TAF
KRWI 031735Z 0318/0418 06005KT P6SM OVC040
     FM032200 VRB05KT P6SM OVC025
     FM040000 05005KT 3SM BR OVC007
     FM040500 VRB03KT 1/2SM FG VV002
     FM041600 22012G18KT P6SM OVC015=



000
FTUS42 KRAH 031735
TAFINT
TAF
KINT 031735Z 0318/0418 VRB05KT P6SM OVC020
      TEMPO 0318/0321 3SM -RA OVC008
     FM032100 05005KT 3SM BR OVC007
     FM040500 VRB03KT 1/2SM FG VV002
     FM041700 22010KT 3SM BR OVC008=



000
FTUS42 KRAH 031735
TAFRDU
TAF
KRDU 031735Z 0318/0418 VRB05KT P6SM OVC020
      TEMPO 0321/0324 3SM -RA OVC008
     FM040000 05005KT 3SM BR OVC007
     FM040500 VRB03KT 1/2SM FG VV002
     FM041600 22012G18KT P6SM OVC015=



000
FTUS42 KRAH 031735
TAFFAY
TAF
KFAY 031735Z 0318/0418 VRB05KT P6SM OVC020
      TEMPO 0321/0324 3SM -RA OVC008
     FM040000 05005KT 3SM BR OVC007
     FM040500 VRB03KT 1/2SM FG VV002
     FM041500 22012G21KT 4SM BR OVC015=



000
FTUS42 KRAH 031735
TAFGSO
TAF
KGSO 031735Z 0318/0418 VRB05KT P6SM OVC020
      TEMPO 0318/0321 3SM -RA OVC008
     FM032100 05005KT 3SM BR OVC007
     FM040500 VRB03KT 1/2SM FG VV002
     FM041700 22010KT 3SM BR OVC008=



000
FTUS42 KRAH 031735
TAFGSO
TAF
KGSO 031735Z 0318/0418 VRB05KT P6SM OVC020
      TEMPO 0318/0321 3SM -RA OVC008
     FM032100 05005KT 3SM BR OVC007
     FM040500 VRB03KT 1/2SM FG VV002
     FM041700 22010KT 3SM BR OVC008=



000
FTUS42 KRAH 031735
TAFRWI
TAF
KRWI 031735Z 0318/0418 06005KT P6SM OVC040
     FM032200 VRB05KT P6SM OVC025
     FM040000 05005KT 3SM BR OVC007
     FM040500 VRB03KT 1/2SM FG VV002
     FM041600 22012G18KT P6SM OVC015=



000
FTUS42 KRAH 031735
TAFFAY
TAF
KFAY 031735Z 0318/0418 VRB05KT P6SM OVC020
      TEMPO 0321/0324 3SM -RA OVC008
     FM040000 05005KT 3SM BR OVC007
     FM040500 VRB03KT 1/2SM FG VV002
     FM041500 22012G21KT 4SM BR OVC015=



000
FTUS42 KRAH 031735
TAFRDU
TAF
KRDU 031735Z 0318/0418 VRB05KT P6SM OVC020
      TEMPO 0321/0324 3SM -RA OVC008
     FM040000 05005KT 3SM BR OVC007
     FM040500 VRB03KT 1/2SM FG VV002
     FM041600 22012G18KT P6SM OVC015=



000
FTUS42 KRAH 031735
TAFINT
TAF
KINT 031735Z 0318/0418 VRB05KT P6SM OVC020
      TEMPO 0318/0321 3SM -RA OVC008
     FM032100 05005KT 3SM BR OVC007
     FM040500 VRB03KT 1/2SM FG VV002
     FM041700 22010KT 3SM BR OVC008=



000
FTUS42 KRAH 031735
TAFRDU
TAF
KRDU 031735Z 0318/0418 VRB05KT P6SM OVC020
      TEMPO 0321/0324 3SM -RA OVC008
     FM040000 05005KT 3SM BR OVC007
     FM040500 VRB03KT 1/2SM FG VV002
     FM041600 22012G18KT P6SM OVC015=



000
FTUS42 KRAH 031735
TAFRWI
TAF
KRWI 031735Z 0318/0418 06005KT P6SM OVC040
     FM032200 VRB05KT P6SM OVC025
     FM040000 05005KT 3SM BR OVC007
     FM040500 VRB03KT 1/2SM FG VV002
     FM041600 22012G18KT P6SM OVC015=



000
FTUS42 KRAH 031735
TAFINT
TAF
KINT 031735Z 0318/0418 VRB05KT P6SM OVC020
      TEMPO 0318/0321 3SM -RA OVC008
     FM032100 05005KT 3SM BR OVC007
     FM040500 VRB03KT 1/2SM FG VV002
     FM041700 22010KT 3SM BR OVC008=



000
FTUS42 KRAH 031735
TAFFAY
TAF
KFAY 031735Z 0318/0418 VRB05KT P6SM OVC020
      TEMPO 0321/0324 3SM -RA OVC008
     FM040000 05005KT 3SM BR OVC007
     FM040500 VRB03KT 1/2SM FG VV002
     FM041500 22012G21KT 4SM BR OVC015=



000
FTUS42 KRAH 031735
TAFGSO
TAF
KGSO 031735Z 0318/0418 VRB05KT P6SM OVC020
      TEMPO 0318/0321 3SM -RA OVC008
     FM032100 05005KT 3SM BR OVC007
     FM040500 VRB03KT 1/2SM FG VV002
     FM041700 22010KT 3SM BR OVC008=



000
FTUS42 KRAH 031712 AAB
TAFFAY
TAF AMD
KFAY 031712Z 0317/0412 06008KT P6SM OVC015
     FM040400 VRB03KT 1/2SM FG VV002=



000
FTUS42 KRAH 031712 AAB
TAFFAY
TAF AMD
KFAY 031712Z 0317/0412 06008KT P6SM OVC015
     FM040400 VRB03KT 1/2SM FG VV002=



000
FTUS42 KRAH 031650 AAA
TAFRWI
TAF AMD
KRWI 031650Z 0317/0412 06005KT P6SM OVC040
     FM032200 VRB05KT P6SM OVC025
     FM040000 VRB03KT 4SM BR OVC007
     FM040300 VRB03KT 1/2SM FG VV002=



000
FTUS42 KRAH 031650 AAA
TAFRWI
TAF AMD
KRWI 031650Z 0317/0412 06005KT P6SM OVC040
     FM032200 VRB05KT P6SM OVC025
     FM040000 VRB03KT 4SM BR OVC007
     FM040300 VRB03KT 1/2SM FG VV002=



000
FTUS42 KRAH 031647 AAA
TAFINT
TAF AMD
KINT 031647Z 0317/0412 VRB05KT P6SM OVC020
      TEMPO 0318/0321 3SM -RA OVC008
     FM032100 05005KT 3SM BR OVC007
     FM040300 VRB03KT 1/2SM FG VV002=



000
FTUS42 KRAH 031647 AAA
TAFINT
TAF AMD
KINT 031647Z 0317/0412 VRB05KT P6SM OVC020
      TEMPO 0318/0321 3SM -RA OVC008
     FM032100 05005KT 3SM BR OVC007
     FM040300 VRB03KT 1/2SM FG VV002=



000
FTUS42 KRAH 031647 AAA
TAFINT
TAF AMD
KINT 031647Z 0317/0412 VRB05KT P6SM OVC020
      TEMPO 0318/0321 3SM -RA OVC008
     FM032100 05005KT 3SM BR OVC007
     FM040300 VRB03KT 1/2SM FG VV002=



000
FTUS42 KRAH 031645 AAA
TAFFAY
TAF AMD
KFAY 031645Z 0317/0412 06008KT P6SM OVC025
     FM040400 VRB03KT 1/2SM FG VV002=



000
FTUS42 KRAH 031645 AAA
TAFFAY
TAF AMD
KFAY 031645Z 0317/0412 06008KT P6SM OVC025
     FM040400 VRB03KT 1/2SM FG VV002=



000
FTUS42 KRAH 031204 AAA
TAFRDU
TAF AMD
KRDU 031204Z 0312/0412 09008KT P6SM OVC030
      TEMPO 0317/0321 5SM -RA OVC008
     FM032100 VRB05KT 3SM BR OVC005
     FM040300 VRB03KT 1/2SM FG VV002=



000
FTUS42 KRAH 031204 AAA
TAFRDU
TAF AMD
KRDU 031204Z 0312/0412 09008KT P6SM OVC030
      TEMPO 0317/0321 5SM -RA OVC008
     FM032100 VRB05KT 3SM BR OVC005
     FM040300 VRB03KT 1/2SM FG VV002=



000
FTUS42 KRAH 031204 AAA
TAFRDU
TAF AMD
KRDU 031204Z 0312/0412 09008KT P6SM OVC030
      TEMPO 0317/0321 5SM -RA OVC008
     FM032100 VRB05KT 3SM BR OVC005
     FM040300 VRB03KT 1/2SM FG VV002=



000
FTUS42 KRAH 031204 AAA
TAFRDU
TAF AMD
KRDU 031204Z 0312/0412 09008KT P6SM OVC030
      TEMPO 0317/0321 5SM -RA OVC008
     FM032100 VRB05KT 3SM BR OVC005
     FM040300 VRB03KT 1/2SM FG VV002=



000
FTUS42 KRAH 031142
TAFRDU
TAF
KRDU 031142Z 0312/0412 05005KT P6SM OVC030
      TEMPO 0317/0321 5SM -RA OVC008
     FM032100 05005KT 3SM BR OVC005
     FM040300 VRB03KT 1/2SM FG VV002=



000
FTUS42 KRAH 031142
TAFRDU
TAF
KRDU 031142Z 0312/0412 05005KT P6SM OVC030
      TEMPO 0317/0321 5SM -RA OVC008
     FM032100 05005KT 3SM BR OVC005
     FM040300 VRB03KT 1/2SM FG VV002=



000
FTUS42 KRAH 031142
TAFINT
TAF
KINT 031142Z 0312/0412 05005KT P6SM OVC015
      TEMPO 0317/0321 5SM -RA OVC008
     FM032100 05005KT 3SM BR OVC005
     FM040300 VRB03KT 1/2SM FG VV002=



000
FTUS42 KRAH 031142
TAFRWI
TAF
KRWI 031142Z 0312/0412 05005KT P6SM OVC030
      TEMPO 0317/0321 5SM -RA OVC008
     FM032100 05005KT 3SM BR OVC005
     FM040300 VRB03KT 1/2SM FG VV002=



000
FTUS42 KRAH 031142
TAFINT
TAF
KINT 031142Z 0312/0412 05005KT P6SM OVC015
      TEMPO 0317/0321 5SM -RA OVC008
     FM032100 05005KT 3SM BR OVC005
     FM040300 VRB03KT 1/2SM FG VV002=



000
FTUS42 KRAH 031142
TAFRDU
TAF
KRDU 031142Z 0312/0412 05005KT P6SM OVC030
      TEMPO 0317/0321 5SM -RA OVC008
     FM032100 05005KT 3SM BR OVC005
     FM040300 VRB03KT 1/2SM FG VV002=



000
FTUS42 KRAH 031142
TAFINT
TAF
KINT 031142Z 0312/0412 05005KT P6SM OVC015
      TEMPO 0317/0321 5SM -RA OVC008
     FM032100 05005KT 3SM BR OVC005
     FM040300 VRB03KT 1/2SM FG VV002=



000
FTUS42 KRAH 031142
TAFRDU
TAF
KRDU 031142Z 0312/0412 05005KT P6SM OVC030
      TEMPO 0317/0321 5SM -RA OVC008
     FM032100 05005KT 3SM BR OVC005
     FM040300 VRB03KT 1/2SM FG VV002=



000
FTUS42 KRAH 031142
TAFGSO
TAF
KGSO 031142Z 0312/0412 05005KT P6SM OVC023
      TEMPO 0317/0321 5SM -RA OVC008
     FM032100 05005KT 3SM BR OVC005
     FM040300 VRB03KT 1/2SM FG VV002=



000
FTUS42 KRAH 031142
TAFFAY
TAF
KFAY 031142Z 0312/0412 05005KT P6SM OVC050
      TEMPO 0312/0316 5SM -RA OVC015
     FM031600 05005KT 5SM BR OVC015
     FM040300 VRB03KT 1/2SM FG VV002=



000
FTUS42 KRAH 031142
TAFRWI
TAF
KRWI 031142Z 0312/0412 05005KT P6SM OVC030
      TEMPO 0317/0321 5SM -RA OVC008
     FM032100 05005KT 3SM BR OVC005
     FM040300 VRB03KT 1/2SM FG VV002=



000
FTUS42 KRAH 031142
TAFFAY
TAF
KFAY 031142Z 0312/0412 05005KT P6SM OVC050
      TEMPO 0312/0316 5SM -RA OVC015
     FM031600 05005KT 5SM BR OVC015
     FM040300 VRB03KT 1/2SM FG VV002=



000
FTUS42 KRAH 031142
TAFINT
TAF
KINT 031142Z 0312/0412 05005KT P6SM OVC015
      TEMPO 0317/0321 5SM -RA OVC008
     FM032100 05005KT 3SM BR OVC005
     FM040300 VRB03KT 1/2SM FG VV002=



000
FTUS42 KRAH 031142
TAFGSO
TAF
KGSO 031142Z 0312/0412 05005KT P6SM OVC023
      TEMPO 0317/0321 5SM -RA OVC008
     FM032100 05005KT 3SM BR OVC005
     FM040300 VRB03KT 1/2SM FG VV002=



000
FTUS42 KRAH 031142
TAFGSO
TAF
KGSO 031142Z 0312/0412 05005KT P6SM OVC023
      TEMPO 0317/0321 5SM -RA OVC008
     FM032100 05005KT 3SM BR OVC005
     FM040300 VRB03KT 1/2SM FG VV002=



000
FTUS42 KRAH 031142
TAFFAY
TAF
KFAY 031142Z 0312/0412 05005KT P6SM OVC050
      TEMPO 0312/0316 5SM -RA OVC015
     FM031600 05005KT 5SM BR OVC015
     FM040300 VRB03KT 1/2SM FG VV002=



000
FTUS42 KRAH 031142
TAFRWI
TAF
KRWI 031142Z 0312/0412 05005KT P6SM OVC030
      TEMPO 0317/0321 5SM -RA OVC008
     FM032100 05005KT 3SM BR OVC005
     FM040300 VRB03KT 1/2SM FG VV002=



000
FTUS42 KRAH 031142
TAFRWI
TAF
KRWI 031142Z 0312/0412 05005KT P6SM OVC030
      TEMPO 0317/0321 5SM -RA OVC008
     FM032100 05005KT 3SM BR OVC005
     FM040300 VRB03KT 1/2SM FG VV002=



000
FTUS42 KRAH 031142
TAFFAY
TAF
KFAY 031142Z 0312/0412 05005KT P6SM OVC050
      TEMPO 0312/0316 5SM -RA OVC015
     FM031600 05005KT 5SM BR OVC015
     FM040300 VRB03KT 1/2SM FG VV002=



000
FTUS42 KRAH 031142
TAFGSO
TAF
KGSO 031142Z 0312/0412 05005KT P6SM OVC023
      TEMPO 0317/0321 5SM -RA OVC008
     FM032100 05005KT 3SM BR OVC005
     FM040300 VRB03KT 1/2SM FG VV002=



000
FTUS42 KRAH 030600 AAA
TAFFAY
TAF AMD
KFAY 030600Z 0306/0406 VRB06KT P6SM SCT025
      TEMPO 0306/0309 BKN010
     FM032000 08006KT P6SM BKN025=



000
FTUS42 KRAH 030600 AAA
TAFFAY
TAF AMD
KFAY 030600Z 0306/0406 VRB06KT P6SM SCT025
      TEMPO 0306/0309 BKN010
     FM032000 08006KT P6SM BKN025=



000
FTUS42 KRAH 030600 AAA
TAFFAY
TAF AMD
KFAY 030600Z 0306/0406 VRB06KT P6SM SCT025
      TEMPO 0306/0309 BKN010
     FM032000 08006KT P6SM BKN025=



000
FTUS42 KRAH 030540
TAFFAY
TAF
KFAY 030540Z 0306/0406 VRB06KT P6SM SKC
     FM030600 07006KT P6SM BKN040
     FM032000 08006KT P6SM BKN025=



000
FTUS42 KRAH 030540
TAFINT
TAF
KINT 030540Z 0306/0406 05005KT P6SM FEW045 BKN250
     FM030700 06003KT P6SM SCT020 BKN040
      TEMPO 0312/0315 3SM -FZDZ BKN009
     FM031500 07004KT 6SM -RA BR SCT012 BKN020 OVC040=



000
FTUS42 KRAH 030540
TAFRDU
TAF
KRDU 030540Z 0306/0406 05005KT P6SM BKN017
     FM030800 07006KT P6SM BKN040
      TEMPO 0312/0315 6SM -RA BR BKN025 OVC040
     FM031800 08006KT P6SM BKN025=



000
FTUS42 KRAH 030540
TAFRWI
TAF
KRWI 030540Z 0306/0406 VRB03KT P6SM OVC025
     FM030800 07005KT P6SM BKN040=



000
FTUS42 KRAH 030540
TAFINT
TAF
KINT 030540Z 0306/0406 05005KT P6SM FEW045 BKN250
     FM030700 06003KT P6SM SCT020 BKN040
      TEMPO 0312/0315 3SM -FZDZ BKN009
     FM031500 07004KT 6SM -RA BR SCT012 BKN020 OVC040=



000
FTUS42 KRAH 030540
TAFRDU
TAF
KRDU 030540Z 0306/0406 05005KT P6SM BKN017
     FM030800 07006KT P6SM BKN040
      TEMPO 0312/0315 6SM -RA BR BKN025 OVC040
     FM031800 08006KT P6SM BKN025=



000
FTUS42 KRAH 030540
TAFRWI
TAF
KRWI 030540Z 0306/0406 VRB03KT P6SM OVC025
     FM030800 07005KT P6SM BKN040=



000
FTUS42 KRAH 030540
TAFGSO
TAF
KGSO 030540Z 0306/0406 05005KT P6SM FEW045 BKN250
     FM030700 06003KT P6SM SCT020 BKN040
      TEMPO 0312/0315 3SM -FZDZ BKN009
     FM031500 07004KT 6SM -RA BR SCT012 BKN020 OVC040=



000
FTUS42 KRAH 030540
TAFGSO
TAF
KGSO 030540Z 0306/0406 05005KT P6SM FEW045 BKN250
     FM030700 06003KT P6SM SCT020 BKN040
      TEMPO 0312/0315 3SM -FZDZ BKN009
     FM031500 07004KT 6SM -RA BR SCT012 BKN020 OVC040=



000
FTUS42 KRAH 030540
TAFFAY
TAF
KFAY 030540Z 0306/0406 VRB06KT P6SM SKC
     FM030600 07006KT P6SM BKN040
     FM032000 08006KT P6SM BKN025=



000
FTUS42 KRAH 030540
TAFRWI
TAF
KRWI 030540Z 0306/0406 VRB03KT P6SM OVC025
     FM030800 07005KT P6SM BKN040=



000
FTUS42 KRAH 030540
TAFFAY
TAF
KFAY 030540Z 0306/0406 VRB06KT P6SM SKC
     FM030600 07006KT P6SM BKN040
     FM032000 08006KT P6SM BKN025=



000
FTUS42 KRAH 030540
TAFGSO
TAF
KGSO 030540Z 0306/0406 05005KT P6SM FEW045 BKN250
     FM030700 06003KT P6SM SCT020 BKN040
      TEMPO 0312/0315 3SM -FZDZ BKN009
     FM031500 07004KT 6SM -RA BR SCT012 BKN020 OVC040=



000
FTUS42 KRAH 030540
TAFRWI
TAF
KRWI 030540Z 0306/0406 VRB03KT P6SM OVC025
     FM030800 07005KT P6SM BKN040=



000
FTUS42 KRAH 030540
TAFRDU
TAF
KRDU 030540Z 0306/0406 05005KT P6SM BKN017
     FM030800 07006KT P6SM BKN040
      TEMPO 0312/0315 6SM -RA BR BKN025 OVC040
     FM031800 08006KT P6SM BKN025=



000
FTUS42 KRAH 030540
TAFGSO
TAF
KGSO 030540Z 0306/0406 05005KT P6SM FEW045 BKN250
     FM030700 06003KT P6SM SCT020 BKN040
      TEMPO 0312/0315 3SM -FZDZ BKN009
     FM031500 07004KT 6SM -RA BR SCT012 BKN020 OVC040=



000
FTUS42 KRAH 030540
TAFFAY
TAF
KFAY 030540Z 0306/0406 VRB06KT P6SM SKC
     FM030600 07006KT P6SM BKN040
     FM032000 08006KT P6SM BKN025=



000
FTUS42 KRAH 030540
TAFINT
TAF
KINT 030540Z 0306/0406 05005KT P6SM FEW045 BKN250
     FM030700 06003KT P6SM SCT020 BKN040
      TEMPO 0312/0315 3SM -FZDZ BKN009
     FM031500 07004KT 6SM -RA BR SCT012 BKN020 OVC040=



000
FTUS42 KRAH 030540
TAFRDU
TAF
KRDU 030540Z 0306/0406 05005KT P6SM BKN017
     FM030800 07006KT P6SM BKN040
      TEMPO 0312/0315 6SM -RA BR BKN025 OVC040
     FM031800 08006KT P6SM BKN025=



000
FTUS42 KRAH 030540
TAFINT
TAF
KINT 030540Z 0306/0406 05005KT P6SM FEW045 BKN250
     FM030700 06003KT P6SM SCT020 BKN040
      TEMPO 0312/0315 3SM -FZDZ BKN009
     FM031500 07004KT 6SM -RA BR SCT012 BKN020 OVC040=



000
FTUS42 KRAH 030443 AAB
TAFRDU
TAF AMD
KRDU 030443Z 0305/0324 03005KT P6SM SCT050 BKN250
      TEMPO 0305/0308 BKN015
     FM030800 07006KT P6SM BKN040
      TEMPO 0312/0315 6SM -RA BR BKN025 OVC040
     FM031800 08006KT P6SM BKN025=



000
FTUS42 KRAH 030443 AAB
TAFRDU
TAF AMD
KRDU 030443Z 0305/0324 03005KT P6SM SCT050 BKN250
      TEMPO 0305/0308 BKN015
     FM030800 07006KT P6SM BKN040
      TEMPO 0312/0315 6SM -RA BR BKN025 OVC040
     FM031800 08006KT P6SM BKN025=



000
FTUS42 KRAH 030443 AAB
TAFRDU
TAF AMD
KRDU 030443Z 0305/0324 03005KT P6SM SCT050 BKN250
      TEMPO 0305/0308 BKN015
     FM030800 07006KT P6SM BKN040
      TEMPO 0312/0315 6SM -RA BR BKN025 OVC040
     FM031800 08006KT P6SM BKN025=



000
FTUS42 KRAH 030443 AAB
TAFRDU
TAF AMD
KRDU 030443Z 0305/0324 03005KT P6SM SCT050 BKN250
      TEMPO 0305/0308 BKN015
     FM030800 07006KT P6SM BKN040
      TEMPO 0312/0315 6SM -RA BR BKN025 OVC040
     FM031800 08006KT P6SM BKN025=



000
FTUS42 KRAH 030237 AAA
TAFRWI
TAF AMD
KRWI 030237Z 0303/0324 03006KT P6SM FEW045 BKN250
      TEMPO 0304/0308 BKN012
     FM030800 07005KT P6SM BKN040=



000
FTUS42 KRAH 030237 AAA
TAFINT
TAF AMD
KINT 030237Z 0303/0324 03004KT P6SM FEW045 BKN250
     FM030700 06003KT P6SM SCT020 BKN040 PROB30 0312/0315 3SM -FZDZ
      BKN009
     FM031500 07004KT 6SM -RA BR SCT012 BKN020 OVC040=



000
FTUS42 KRAH 030237 AAA
TAFINT
TAF AMD
KINT 030237Z 0303/0324 03004KT P6SM FEW045 BKN250
     FM030700 06003KT P6SM SCT020 BKN040 PROB30 0312/0315 3SM -FZDZ
      BKN009
     FM031500 07004KT 6SM -RA BR SCT012 BKN020 OVC040=



000
FTUS42 KRAH 030237 AAA
TAFRDU
TAF AMD
KRDU 030237Z 0303/0324 03005KT P6SM FEW050 BKN250
     FM030800 07006KT P6SM BKN040
      TEMPO 0312/0315 6SM -RA BR BKN025 OVC040
     FM031800 08006KT P6SM BKN025=



000
FTUS42 KRAH 030237 AAA
TAFGSO
TAF AMD
KGSO 030237Z 0303/0324 03004KT P6SM FEW045 BKN250
     FM030700 06003KT P6SM SCT020 BKN040 PROB30 0312/0315 3SM -FZDZ
      BKN009
     FM031600 07004KT 6SM -RA BR SCT012 BKN020 OVC040=



000
FTUS42 KRAH 030237 AAA
TAFFAY
TAF AMD
KFAY 030237Z 0303/0324 03005KT P6SM FEW050 BKN250
     FM030600 07006KT P6SM BKN040
     FM032000 08006KT P6SM BKN025=



000
FTUS42 KRAH 030237 AAA
TAFRWI
TAF AMD
KRWI 030237Z 0303/0324 03006KT P6SM FEW045 BKN250
      TEMPO 0304/0308 BKN012
     FM030800 07005KT P6SM BKN040=



000
FTUS42 KRAH 030237 AAA
TAFGSO
TAF AMD
KGSO 030237Z 0303/0324 03004KT P6SM FEW045 BKN250
     FM030700 06003KT P6SM SCT020 BKN040 PROB30 0312/0315 3SM -FZDZ
      BKN009
     FM031600 07004KT 6SM -RA BR SCT012 BKN020 OVC040=



000
FTUS42 KRAH 022340
TAFFAY
TAF
KFAY 022340Z 0300/0324 03005KT P6SM FEW050 BKN250
      TEMPO 0303/0305 BKN020
     FM030600 07006KT P6SM BKN040
     FM032000 08006KT P6SM BKN025=



000
FTUS42 KRAH 022340
TAFRWI
TAF
KRWI 022340Z 0300/0324 03006KT P6SM FEW045 BKN250
      TEMPO 0302/0306 BKN015
     FM030600 07005KT P6SM BKN040=



000
FTUS42 KRAH 022340
TAFINT
TAF
KINT 022340Z 0300/0324 03004KT P6SM FEW045 BKN250
      TEMPO 0304/0307 BKN015
     FM030700 06003KT P6SM SCT020 BKN040 PROB30 0311/0314 3SM -FZDZ
      BKN009
     FM031500 07004KT 6SM -RA BR SCT012 BKN020 OVC040=



000
FTUS42 KRAH 022340
TAFRDU
TAF
KRDU 022340Z 0300/0324 03005KT P6SM FEW050 BKN250
      TEMPO 0302/0306 BKN015
     FM030800 07006KT P6SM BKN040
      TEMPO 0312/0315 6SM -RA BR OVC025
     FM031800 08006KT P6SM BKN025=



000
FTUS42 KRAH 022340
TAFFAY
TAF
KFAY 022340Z 0300/0324 03005KT P6SM FEW050 BKN250
      TEMPO 0303/0305 BKN020
     FM030600 07006KT P6SM BKN040
     FM032000 08006KT P6SM BKN025=



000
FTUS42 KRAH 022340
TAFINT
TAF
KINT 022340Z 0300/0324 03004KT P6SM FEW045 BKN250
      TEMPO 0304/0307 BKN015
     FM030700 06003KT P6SM SCT020 BKN040 PROB30 0311/0314 3SM -FZDZ
      BKN009
     FM031500 07004KT 6SM -RA BR SCT012 BKN020 OVC040=



000
FTUS42 KRAH 022340
TAFGSO
TAF
KGSO 022340Z 0300/0324 03004KT P6SM FEW045 BKN250
      TEMPO 0304/0307 BKN015
     FM030700 06003KT P6SM SCT020 BKN040 PROB30 0312/0315 3SM -FZDZ
      BKN009
     FM031600 07004KT 6SM -RA BR SCT012 BKN020 OVC040=



000
FTUS42 KRAH 022340
TAFRDU
TAF
KRDU 022340Z 0300/0324 03005KT P6SM FEW050 BKN250
      TEMPO 0302/0306 BKN015
     FM030800 07006KT P6SM BKN040
      TEMPO 0312/0315 6SM -RA BR OVC025
     FM031800 08006KT P6SM BKN025=



000
FTUS42 KRAH 022340
TAFRWI
TAF
KRWI 022340Z 0300/0324 03006KT P6SM FEW045 BKN250
      TEMPO 0302/0306 BKN015
     FM030600 07005KT P6SM BKN040=



000
FTUS42 KRAH 022340
TAFGSO
TAF
KGSO 022340Z 0300/0324 03004KT P6SM FEW045 BKN250
      TEMPO 0304/0307 BKN015
     FM030700 06003KT P6SM SCT020 BKN040 PROB30 0312/0315 3SM -FZDZ
      BKN009
     FM031600 07004KT 6SM -RA BR SCT012 BKN020 OVC040=



000
FTUS42 KRAH 022340
TAFINT
TAF
KINT 022340Z 0300/0324 03004KT P6SM FEW045 BKN250
      TEMPO 0304/0307 BKN015
     FM030700 06003KT P6SM SCT020 BKN040 PROB30 0311/0314 3SM -FZDZ
      BKN009
     FM031500 07004KT 6SM -RA BR SCT012 BKN020 OVC040=



000
FTUS42 KRAH 022340
TAFFAY
TAF
KFAY 022340Z 0300/0324 03005KT P6SM FEW050 BKN250
      TEMPO 0303/0305 BKN020
     FM030600 07006KT P6SM BKN040
     FM032000 08006KT P6SM BKN025=



000
FTUS42 KRAH 022340
TAFRDU
TAF
KRDU 022340Z 0300/0324 03005KT P6SM FEW050 BKN250
      TEMPO 0302/0306 BKN015
     FM030800 07006KT P6SM BKN040
      TEMPO 0312/0315 6SM -RA BR OVC025
     FM031800 08006KT P6SM BKN025=



000
FTUS42 KRAH 022340
TAFRWI
TAF
KRWI 022340Z 0300/0324 03006KT P6SM FEW045 BKN250
      TEMPO 0302/0306 BKN015
     FM030600 07005KT P6SM BKN040=



000
FTUS42 KRAH 022340
TAFGSO
TAF
KGSO 022340Z 0300/0324 03004KT P6SM FEW045 BKN250
      TEMPO 0304/0307 BKN015
     FM030700 06003KT P6SM SCT020 BKN040 PROB30 0312/0315 3SM -FZDZ
      BKN009
     FM031600 07004KT 6SM -RA BR SCT012 BKN020 OVC040=



000
FTUS42 KRAH 022340
TAFRDU
TAF
KRDU 022340Z 0300/0324 03005KT P6SM FEW050 BKN250
      TEMPO 0302/0306 BKN015
     FM030800 07006KT P6SM BKN040
      TEMPO 0312/0315 6SM -RA BR OVC025
     FM031800 08006KT P6SM BKN025=



000
FTUS42 KRAH 022340
TAFINT
TAF
KINT 022340Z 0300/0324 03004KT P6SM FEW045 BKN250
      TEMPO 0304/0307 BKN015
     FM030700 06003KT P6SM SCT020 BKN040 PROB30 0311/0314 3SM -FZDZ
      BKN009
     FM031500 07004KT 6SM -RA BR SCT012 BKN020 OVC040=



000
FTUS42 KRAH 022340
TAFRWI
TAF
KRWI 022340Z 0300/0324 03006KT P6SM FEW045 BKN250
      TEMPO 0302/0306 BKN015
     FM030600 07005KT P6SM BKN040=



000
FTUS42 KRAH 022340
TAFFAY
TAF
KFAY 022340Z 0300/0324 03005KT P6SM FEW050 BKN250
      TEMPO 0303/0305 BKN020
     FM030600 07006KT P6SM BKN040
     FM032000 08006KT P6SM BKN025=



000
FTUS42 KRAH 022340
TAFGSO
TAF
KGSO 022340Z 0300/0324 03004KT P6SM FEW045 BKN250
      TEMPO 0304/0307 BKN015
     FM030700 06003KT P6SM SCT020 BKN040 PROB30 0312/0315 3SM -FZDZ
      BKN009
     FM031600 07004KT 6SM -RA BR SCT012 BKN020 OVC040=



    US Dept of Commerce
    National Oceanic and Atmospheric Administration
    National Weather Service
    1325 East West Highway
    Silver Spring, MD 20910
    Page Author: NWS Internet Services Team
Disclaimer
Information Quality
Credits
Glossary
Privacy Policy
Freedom of Information Act (FOIA)
About Us
Career Opportunities